<?xml version="1.0" encoding="UTF-8" standalone="no" ?>
<gpx xmlns="http://www.topografix.com/GPX/1/1" xmlns:xsi="http://www.w3.org/2001/XMLSchema-instance" xsi:schemaLocation="http://www.topografix.com/GPX/1/1 http://www.topografix.com/GPX/1/1/gpx.xsd" version="1.1" creator="VisuGPX - https://www.visugpx.com">
  <metadata>
    <name>VTT Brezier/Le Puy/La Citta/Le Pape</name>
    <desc><![CDATA[A Brezier se garer sur le parking  à l\'entrée du village. Prendre la route direction Gap,puis  à 2/300 m prendre à gauche la raide petite route qui monte à la ferme du puy (panneau Le puy) ,dépasser les bâtiments et prendre la longue descente à l\'Ubac en direction de Rochebrune . Après le pont qui traverse le torrent , prendre la piste de gauche pour une longue montée à l\'adret , qui mène jusqu\'à la crête de Maladrech . Après la barrière à env 500m prendre le petit sentier (Direction Gigors) à gauche , qui descend en monotrace la splendide crête de Lachaup au bout duquel on prend  en direction \"pont de pierre\" la piste du Pape que l\'on descend jusqu\'au pont de pierre ou on rejoint la D951 qui en la prenant à gauche sur 2,5 km vous ramène à la voiture
De grandioses panoramas se succèdent tout au long de cette ballade essentiellement en forêt ]]></desc>
  </metadata>
  <trk>
    <name><![CDATA[N°  Brezier-Le Puy-la Citta -Lachaup-Le pape]]></name>
    <trkseg>
      <trkpt lat="44.42811" lon="6.19838">
        <ele>851.8654785</ele>
        <time>2013-08-26T07:19:34Z</time>
      </trkpt>
      <trkpt lat="44.42804" lon="6.19829">
        <ele>854.7492676</ele>
        <time>2013-08-26T07:20:13Z</time>
      </trkpt>
      <trkpt lat="44.42804" lon="6.1983">
        <ele>858.1140137</ele>
        <time>2013-08-26T07:20:24Z</time>
      </trkpt>
      <trkpt lat="44.42804" lon="6.1983">
        <ele>861.4787598</ele>
        <time>2013-08-26T07:20:42Z</time>
      </trkpt>
      <trkpt lat="44.42806" lon="6.19833">
        <ele>863.8818359</ele>
        <time>2013-08-26T07:21:24Z</time>
      </trkpt>
      <trkpt lat="44.42795" lon="6.19831">
        <ele>863.4013672</ele>
        <time>2013-08-26T07:21:36Z</time>
      </trkpt>
      <trkpt lat="44.42795" lon="6.19831">
        <ele>862.9206543</ele>
        <time>2013-08-26T07:21:48Z</time>
      </trkpt>
      <trkpt lat="44.42797" lon="6.1984">
        <ele>863.4013672</ele>
        <time>2013-08-26T07:21:54Z</time>
      </trkpt>
      <trkpt lat="44.42816" lon="6.19843">
        <ele>863.8818359</ele>
        <time>2013-08-26T07:22:02Z</time>
      </trkpt>
      <trkpt lat="44.42851" lon="6.19841">
        <ele>865.3239746</ele>
        <time>2013-08-26T07:22:20Z</time>
      </trkpt>
      <trkpt lat="44.4286" lon="6.19841">
        <ele>865.3239746</ele>
        <time>2013-08-26T07:22:24Z</time>
      </trkpt>
      <trkpt lat="44.42905" lon="6.19899">
        <ele>863.8818359</ele>
        <time>2013-08-26T07:22:44Z</time>
      </trkpt>
      <trkpt lat="44.4294" lon="6.19942">
        <ele>862.4399414</ele>
        <time>2013-08-26T07:22:55Z</time>
      </trkpt>
      <trkpt lat="44.43026" lon="6.20009">
        <ele>859.0751953</ele>
        <time>2013-08-26T07:23:14Z</time>
      </trkpt>
      <trkpt lat="44.43068" lon="6.2004">
        <ele>855.2299805</ele>
        <time>2013-08-26T07:23:21Z</time>
      </trkpt>
      <trkpt lat="44.43075" lon="6.20045">
        <ele>855.2299805</ele>
        <time>2013-08-26T07:23:22Z</time>
      </trkpt>
      <trkpt lat="44.43122" lon="6.20105">
        <ele>851.8654785</ele>
        <time>2013-08-26T07:23:30Z</time>
      </trkpt>
      <trkpt lat="44.43128" lon="6.20109">
        <ele>851.8654785</ele>
        <time>2013-08-26T07:23:31Z</time>
      </trkpt>
      <trkpt lat="44.43144" lon="6.20115">
        <ele>850.423584</ele>
        <time>2013-08-26T07:23:34Z</time>
      </trkpt>
      <trkpt lat="44.43216" lon="6.20122">
        <ele>847.0588379</ele>
        <time>2013-08-26T07:23:46Z</time>
      </trkpt>
      <trkpt lat="44.43302" lon="6.20129">
        <ele>843.6940918</ele>
        <time>2013-08-26T07:23:58Z</time>
      </trkpt>
      <trkpt lat="44.43348" lon="6.20161">
        <ele>840.8100586</ele>
        <time>2013-08-26T07:24:05Z</time>
      </trkpt>
      <trkpt lat="44.43384" lon="6.20183">
        <ele>838.8876953</ele>
        <time>2013-08-26T07:24:10Z</time>
      </trkpt>
      <trkpt lat="44.43405" lon="6.20198">
        <ele>836.484375</ele>
        <time>2013-08-26T07:24:13Z</time>
      </trkpt>
      <trkpt lat="44.43448" lon="6.20235">
        <ele>833.6003418</ele>
        <time>2013-08-26T07:24:20Z</time>
      </trkpt>
      <trkpt lat="44.43466" lon="6.20253">
        <ele>832.1584473</ele>
        <time>2013-08-26T07:24:23Z</time>
      </trkpt>
      <trkpt lat="44.43489" lon="6.20263">
        <ele>830.7165527</ele>
        <time>2013-08-26T07:24:27Z</time>
      </trkpt>
      <trkpt lat="44.43512" lon="6.20251">
        <ele>827.3518066</ele>
        <time>2013-08-26T07:24:33Z</time>
      </trkpt>
      <trkpt lat="44.43515" lon="6.20247">
        <ele>827.3518066</ele>
        <time>2013-08-26T07:24:34Z</time>
      </trkpt>
      <trkpt lat="44.43522" lon="6.20229">
        <ele>825.909668</ele>
        <time>2013-08-26T07:24:37Z</time>
      </trkpt>
      <trkpt lat="44.43538" lon="6.20206">
        <ele>825.4289551</ele>
        <time>2013-08-26T07:24:47Z</time>
      </trkpt>
      <trkpt lat="44.43539" lon="6.20205">
        <ele>825.909668</ele>
        <time>2013-08-26T07:24:56Z</time>
      </trkpt>
      <trkpt lat="44.43538" lon="6.20183">
        <ele>827.3518066</ele>
        <time>2013-08-26T07:25:20Z</time>
      </trkpt>
      <trkpt lat="44.43538" lon="6.20183">
        <ele>827.8322754</ele>
        <time>2013-08-26T07:25:37Z</time>
      </trkpt>
      <trkpt lat="44.43538" lon="6.20183">
        <ele>827.8322754</ele>
        <time>2013-08-26T07:25:44Z</time>
      </trkpt>
      <trkpt lat="44.43527" lon="6.20187">
        <ele>825.4289551</ele>
        <time>2013-08-26T07:25:53Z</time>
      </trkpt>
      <trkpt lat="44.43525" lon="6.20188">
        <ele>825.4289551</ele>
        <time>2013-08-26T07:25:54Z</time>
      </trkpt>
      <trkpt lat="44.43521" lon="6.20203">
        <ele>824.4677734</ele>
        <time>2013-08-26T07:26:00Z</time>
      </trkpt>
      <trkpt lat="44.43523" lon="6.2021">
        <ele>823.9870605</ele>
        <time>2013-08-26T07:26:03Z</time>
      </trkpt>
      <trkpt lat="44.43524" lon="6.20199">
        <ele>823.9870605</ele>
        <time>2013-08-26T07:26:11Z</time>
      </trkpt>
      <trkpt lat="44.43526" lon="6.20191">
        <ele>824.9484863</ele>
        <time>2013-08-26T07:26:16Z</time>
      </trkpt>
      <trkpt lat="44.43532" lon="6.20184">
        <ele>825.909668</ele>
        <time>2013-08-26T07:26:21Z</time>
      </trkpt>
      <trkpt lat="44.43554" lon="6.2017">
        <ele>827.8322754</ele>
        <time>2013-08-26T07:26:41Z</time>
      </trkpt>
      <trkpt lat="44.43557" lon="6.2017">
        <ele>828.3132324</ele>
        <time>2013-08-26T07:26:43Z</time>
      </trkpt>
      <trkpt lat="44.43575" lon="6.20183">
        <ele>831.6777344</ele>
        <time>2013-08-26T07:27:01Z</time>
      </trkpt>
      <trkpt lat="44.43581" lon="6.20191">
        <ele>833.1196289</ele>
        <time>2013-08-26T07:27:09Z</time>
      </trkpt>
      <trkpt lat="44.43608" lon="6.20199">
        <ele>835.5229492</ele>
        <time>2013-08-26T07:27:32Z</time>
      </trkpt>
      <trkpt lat="44.4363" lon="6.20187">
        <ele>839.3681641</ele>
        <time>2013-08-26T07:27:52Z</time>
      </trkpt>
      <trkpt lat="44.43645" lon="6.20168">
        <ele>842.2521973</ele>
        <time>2013-08-26T07:28:10Z</time>
      </trkpt>
      <trkpt lat="44.43655" lon="6.20153">
        <ele>844.6555176</ele>
        <time>2013-08-26T07:28:24Z</time>
      </trkpt>
      <trkpt lat="44.43661" lon="6.20151">
        <ele>845.6169434</ele>
        <time>2013-08-26T07:28:30Z</time>
      </trkpt>
      <trkpt lat="44.43665" lon="6.20152">
        <ele>846.0976563</ele>
        <time>2013-08-26T07:28:34Z</time>
      </trkpt>
      <trkpt lat="44.43677" lon="6.20169">
        <ele>848.5007324</ele>
        <time>2013-08-26T07:28:49Z</time>
      </trkpt>
      <trkpt lat="44.43679" lon="6.20172">
        <ele>848.9814453</ele>
        <time>2013-08-26T07:28:51Z</time>
      </trkpt>
      <trkpt lat="44.43699" lon="6.20176">
        <ele>851.8654785</ele>
        <time>2013-08-26T07:29:11Z</time>
      </trkpt>
      <trkpt lat="44.43717" lon="6.20172">
        <ele>854.7492676</ele>
        <time>2013-08-26T07:29:28Z</time>
      </trkpt>
      <trkpt lat="44.43732" lon="6.20175">
        <ele>856.671875</ele>
        <time>2013-08-26T07:29:42Z</time>
      </trkpt>
      <trkpt lat="44.43752" lon="6.20165">
        <ele>857.6333008</ele>
        <time>2013-08-26T07:30:00Z</time>
      </trkpt>
      <trkpt lat="44.43774" lon="6.20158">
        <ele>857.1525879</ele>
        <time>2013-08-26T07:30:13Z</time>
      </trkpt>
      <trkpt lat="44.43803" lon="6.2012">
        <ele>856.1911621</ele>
        <time>2013-08-26T07:30:24Z</time>
      </trkpt>
      <trkpt lat="44.43811" lon="6.20118">
        <ele>856.1911621</ele>
        <time>2013-08-26T07:30:27Z</time>
      </trkpt>
      <trkpt lat="44.43832" lon="6.20135">
        <ele>858.1140137</ele>
        <time>2013-08-26T07:30:45Z</time>
      </trkpt>
      <trkpt lat="44.43855" lon="6.20121">
        <ele>860.9980469</ele>
        <time>2013-08-26T07:31:05Z</time>
      </trkpt>
      <trkpt lat="44.4386" lon="6.20114">
        <ele>861.9594727</ele>
        <time>2013-08-26T07:31:11Z</time>
      </trkpt>
      <trkpt lat="44.43875" lon="6.20108">
        <ele>863.8818359</ele>
        <time>2013-08-26T07:31:26Z</time>
      </trkpt>
      <trkpt lat="44.43896" lon="6.20084">
        <ele>865.3239746</ele>
        <time>2013-08-26T07:31:46Z</time>
      </trkpt>
      <trkpt lat="44.43908" lon="6.20068">
        <ele>866.2851563</ele>
        <time>2013-08-26T07:31:59Z</time>
      </trkpt>
      <trkpt lat="44.43928" lon="6.20055">
        <ele>867.246582</ele>
        <time>2013-08-26T07:32:13Z</time>
      </trkpt>
      <trkpt lat="44.43953" lon="6.20038">
        <ele>868.2077637</ele>
        <time>2013-08-26T07:32:31Z</time>
      </trkpt>
      <trkpt lat="44.4396" lon="6.20033">
        <ele>868.2077637</ele>
        <time>2013-08-26T07:32:36Z</time>
      </trkpt>
      <trkpt lat="44.43992" lon="6.20027">
        <ele>869.1691895</ele>
        <time>2013-08-26T07:32:55Z</time>
      </trkpt>
      <trkpt lat="44.43998" lon="6.20024">
        <ele>869.1691895</ele>
        <time>2013-08-26T07:32:59Z</time>
      </trkpt>
      <trkpt lat="44.44039" lon="6.19986">
        <ele>867.7270508</ele>
        <time>2013-08-26T07:33:17Z</time>
      </trkpt>
      <trkpt lat="44.44052" lon="6.19956">
        <ele>865.3239746</ele>
        <time>2013-08-26T07:33:23Z</time>
      </trkpt>
      <trkpt lat="44.4406" lon="6.19919">
        <ele>861.9594727</ele>
        <time>2013-08-26T07:33:30Z</time>
      </trkpt>
      <trkpt lat="44.44062" lon="6.19894">
        <ele>860.0366211</ele>
        <time>2013-08-26T07:33:34Z</time>
      </trkpt>
      <trkpt lat="44.44058" lon="6.19852">
        <ele>857.6333008</ele>
        <time>2013-08-26T07:33:40Z</time>
      </trkpt>
      <trkpt lat="44.44076" lon="6.19821">
        <ele>857.6333008</ele>
        <time>2013-08-26T07:33:49Z</time>
      </trkpt>
      <trkpt lat="44.4408" lon="6.19827">
        <ele>858.1140137</ele>
        <time>2013-08-26T07:33:52Z</time>
      </trkpt>
      <trkpt lat="44.44114" lon="6.19848">
        <ele>860.0366211</ele>
        <time>2013-08-26T07:34:11Z</time>
      </trkpt>
      <trkpt lat="44.44137" lon="6.19837">
        <ele>860.517334</ele>
        <time>2013-08-26T07:34:26Z</time>
      </trkpt>
      <trkpt lat="44.44169" lon="6.19835">
        <ele>862.9206543</ele>
        <time>2013-08-26T07:34:45Z</time>
      </trkpt>
      <trkpt lat="44.44193" lon="6.19826">
        <ele>865.8046875</ele>
        <time>2013-08-26T07:35:04Z</time>
      </trkpt>
      <trkpt lat="44.44196" lon="6.19825">
        <ele>865.8046875</ele>
        <time>2013-08-26T07:35:06Z</time>
      </trkpt>
      <trkpt lat="44.44223" lon="6.19814">
        <ele>867.7270508</ele>
        <time>2013-08-26T07:35:26Z</time>
      </trkpt>
      <trkpt lat="44.44237" lon="6.19804">
        <ele>869.1691895</ele>
        <time>2013-08-26T07:35:40Z</time>
      </trkpt>
      <trkpt lat="44.4425" lon="6.19788">
        <ele>871.0917969</ele>
        <time>2013-08-26T07:35:52Z</time>
      </trkpt>
      <trkpt lat="44.44259" lon="6.19775">
        <ele>872.5336914</ele>
        <time>2013-08-26T07:36:02Z</time>
      </trkpt>
      <trkpt lat="44.44267" lon="6.19734">
        <ele>874.4562988</ele>
        <time>2013-08-26T07:36:23Z</time>
      </trkpt>
      <trkpt lat="44.44268" lon="6.19717">
        <ele>874.9370117</ele>
        <time>2013-08-26T07:36:30Z</time>
      </trkpt>
      <trkpt lat="44.44272" lon="6.19653">
        <ele>873.0144043</ele>
        <time>2013-08-26T07:36:45Z</time>
      </trkpt>
      <trkpt lat="44.44271" lon="6.1964">
        <ele>872.0529785</ele>
        <time>2013-08-26T07:36:47Z</time>
      </trkpt>
      <trkpt lat="44.44267" lon="6.19613">
        <ele>871.5722656</ele>
        <time>2013-08-26T07:36:51Z</time>
      </trkpt>
      <trkpt lat="44.44259" lon="6.19574">
        <ele>870.611084</ele>
        <time>2013-08-26T07:36:59Z</time>
      </trkpt>
      <trkpt lat="44.44252" lon="6.19543">
        <ele>869.6499023</ele>
        <time>2013-08-26T07:37:05Z</time>
      </trkpt>
      <trkpt lat="44.44243" lon="6.19523">
        <ele>869.1691895</ele>
        <time>2013-08-26T07:37:10Z</time>
      </trkpt>
      <trkpt lat="44.44255" lon="6.19506">
        <ele>870.1303711</ele>
        <time>2013-08-26T07:37:19Z</time>
      </trkpt>
      <trkpt lat="44.44279" lon="6.19513">
        <ele>872.5336914</ele>
        <time>2013-08-26T07:37:33Z</time>
      </trkpt>
      <trkpt lat="44.44283" lon="6.19504">
        <ele>873.0144043</ele>
        <time>2013-08-26T07:37:37Z</time>
      </trkpt>
      <trkpt lat="44.44277" lon="6.19466">
        <ele>873.9755859</ele>
        <time>2013-08-26T07:37:53Z</time>
      </trkpt>
      <trkpt lat="44.44294" lon="6.19452">
        <ele>875.8981934</ele>
        <time>2013-08-26T07:38:05Z</time>
      </trkpt>
      <trkpt lat="44.44301" lon="6.19451">
        <ele>876.3791504</ele>
        <time>2013-08-26T07:38:09Z</time>
      </trkpt>
      <trkpt lat="44.44336" lon="6.19447">
        <ele>878.7824707</ele>
        <time>2013-08-26T07:38:29Z</time>
      </trkpt>
      <trkpt lat="44.44358" lon="6.19438">
        <ele>877.8210449</ele>
        <time>2013-08-26T07:38:35Z</time>
      </trkpt>
      <trkpt lat="44.44375" lon="6.19414">
        <ele>876.8598633</ele>
        <time>2013-08-26T07:38:43Z</time>
      </trkpt>
      <trkpt lat="44.44379" lon="6.19392">
        <ele>876.3791504</ele>
        <time>2013-08-26T07:38:48Z</time>
      </trkpt>
      <trkpt lat="44.44411" lon="6.19375">
        <ele>878.3017578</ele>
        <time>2013-08-26T07:39:04Z</time>
      </trkpt>
      <trkpt lat="44.4444" lon="6.19355">
        <ele>881.185791</ele>
        <time>2013-08-26T07:39:24Z</time>
      </trkpt>
      <trkpt lat="44.44449" lon="6.19348">
        <ele>882.1469727</ele>
        <time>2013-08-26T07:39:31Z</time>
      </trkpt>
      <trkpt lat="44.44473" lon="6.19336">
        <ele>884.550293</ele>
        <time>2013-08-26T07:39:49Z</time>
      </trkpt>
      <trkpt lat="44.44501" lon="6.19338">
        <ele>886.4729004</ele>
        <time>2013-08-26T07:40:05Z</time>
      </trkpt>
      <trkpt lat="44.44533" lon="6.19358">
        <ele>887.9147949</ele>
        <time>2013-08-26T07:40:25Z</time>
      </trkpt>
      <trkpt lat="44.44548" lon="6.19361">
        <ele>887.434082</ele>
        <time>2013-08-26T07:40:42Z</time>
      </trkpt>
      <trkpt lat="44.44548" lon="6.19361">
        <ele>887.434082</ele>
        <time>2013-08-26T07:40:52Z</time>
      </trkpt>
      <trkpt lat="44.44575" lon="6.19327">
        <ele>885.9921875</ele>
        <time>2013-08-26T07:41:05Z</time>
      </trkpt>
      <trkpt lat="44.44611" lon="6.19281">
        <ele>882.6276855</ele>
        <time>2013-08-26T07:41:17Z</time>
      </trkpt>
      <trkpt lat="44.44619" lon="6.19257">
        <ele>881.185791</ele>
        <time>2013-08-26T07:41:21Z</time>
      </trkpt>
      <trkpt lat="44.44624" lon="6.19244">
        <ele>880.2243652</ele>
        <time>2013-08-26T07:41:23Z</time>
      </trkpt>
      <trkpt lat="44.44648" lon="6.19243">
        <ele>878.7824707</ele>
        <time>2013-08-26T07:41:30Z</time>
      </trkpt>
      <trkpt lat="44.44653" lon="6.19256">
        <ele>879.7436523</ele>
        <time>2013-08-26T07:41:36Z</time>
      </trkpt>
      <trkpt lat="44.44673" lon="6.19282">
        <ele>882.6276855</ele>
        <time>2013-08-26T07:41:55Z</time>
      </trkpt>
      <trkpt lat="44.44682" lon="6.19307">
        <ele>885.5114746</ele>
        <time>2013-08-26T07:42:13Z</time>
      </trkpt>
      <trkpt lat="44.44697" lon="6.19303">
        <ele>887.434082</ele>
        <time>2013-08-26T07:42:24Z</time>
      </trkpt>
      <trkpt lat="44.44693" lon="6.19267">
        <ele>890.3181152</ele>
        <time>2013-08-26T07:42:43Z</time>
      </trkpt>
      <trkpt lat="44.44694" lon="6.19243">
        <ele>892.7216797</ele>
        <time>2013-08-26T07:42:58Z</time>
      </trkpt>
      <trkpt lat="44.44688" lon="6.192">
        <ele>895.6054688</ele>
        <time>2013-08-26T07:43:19Z</time>
      </trkpt>
      <trkpt lat="44.44674" lon="6.19163">
        <ele>899.4506836</ele>
        <time>2013-08-26T07:43:39Z</time>
      </trkpt>
      <trkpt lat="44.44667" lon="6.19123">
        <ele>901.8540039</ele>
        <time>2013-08-26T07:44:02Z</time>
      </trkpt>
      <trkpt lat="44.44667" lon="6.19121">
        <ele>901.8540039</ele>
        <time>2013-08-26T07:44:03Z</time>
      </trkpt>
      <trkpt lat="44.44661" lon="6.19082">
        <ele>903.2958984</ele>
        <time>2013-08-26T07:44:23Z</time>
      </trkpt>
      <trkpt lat="44.44645" lon="6.1905">
        <ele>906.6604004</ele>
        <time>2013-08-26T07:44:44Z</time>
      </trkpt>
      <trkpt lat="44.44629" lon="6.19017">
        <ele>910.0251465</ele>
        <time>2013-08-26T07:45:06Z</time>
      </trkpt>
      <trkpt lat="44.44605" lon="6.18977">
        <ele>911.947998</ele>
        <time>2013-08-26T07:45:31Z</time>
      </trkpt>
      <trkpt lat="44.44588" lon="6.18944">
        <ele>914.3510742</ele>
        <time>2013-08-26T07:45:51Z</time>
      </trkpt>
      <trkpt lat="44.44569" lon="6.18903">
        <ele>917.2351074</ele>
        <time>2013-08-26T07:46:15Z</time>
      </trkpt>
      <trkpt lat="44.44561" lon="6.18895">
        <ele>919.1577148</ele>
        <time>2013-08-26T07:46:24Z</time>
      </trkpt>
      <trkpt lat="44.44557" lon="6.18887">
        <ele>920.1188965</ele>
        <time>2013-08-26T07:46:30Z</time>
      </trkpt>
      <trkpt lat="44.44555" lon="6.18875">
        <ele>920.1188965</ele>
        <time>2013-08-26T07:46:47Z</time>
      </trkpt>
      <trkpt lat="44.44555" lon="6.18875">
        <ele>920.5996094</ele>
        <time>2013-08-26T07:47:18Z</time>
      </trkpt>
      <trkpt lat="44.44553" lon="6.18864">
        <ele>921.0803223</ele>
        <time>2013-08-26T07:47:42Z</time>
      </trkpt>
      <trkpt lat="44.44545" lon="6.18828">
        <ele>921.0803223</ele>
        <time>2013-08-26T07:47:56Z</time>
      </trkpt>
      <trkpt lat="44.44529" lon="6.18792">
        <ele>919.6384277</ele>
        <time>2013-08-26T07:48:10Z</time>
      </trkpt>
      <trkpt lat="44.44499" lon="6.18769">
        <ele>917.2351074</ele>
        <time>2013-08-26T07:48:22Z</time>
      </trkpt>
      <trkpt lat="44.4447" lon="6.18746">
        <ele>914.8317871</ele>
        <time>2013-08-26T07:48:34Z</time>
      </trkpt>
      <trkpt lat="44.44471" lon="6.18737">
        <ele>914.3510742</ele>
        <time>2013-08-26T07:48:37Z</time>
      </trkpt>
      <trkpt lat="44.44488" lon="6.18748">
        <ele>912.4284668</ele>
        <time>2013-08-26T07:48:47Z</time>
      </trkpt>
      <trkpt lat="44.44531" lon="6.18769">
        <ele>910.9865723</ele>
        <time>2013-08-26T07:49:02Z</time>
      </trkpt>
      <trkpt lat="44.44565" lon="6.18781">
        <ele>909.5446777</ele>
        <time>2013-08-26T07:49:16Z</time>
      </trkpt>
      <trkpt lat="44.44573" lon="6.18769">
        <ele>908.583252</ele>
        <time>2013-08-26T07:49:22Z</time>
      </trkpt>
      <trkpt lat="44.44567" lon="6.18753">
        <ele>907.6218262</ele>
        <time>2013-08-26T07:49:27Z</time>
      </trkpt>
      <trkpt lat="44.44542" lon="6.18686">
        <ele>905.2185059</ele>
        <time>2013-08-26T07:49:43Z</time>
      </trkpt>
      <trkpt lat="44.44541" lon="6.18632">
        <ele>905.2185059</ele>
        <time>2013-08-26T07:49:58Z</time>
      </trkpt>
      <trkpt lat="44.44532" lon="6.18602">
        <ele>904.2573242</ele>
        <time>2013-08-26T07:50:11Z</time>
      </trkpt>
      <trkpt lat="44.44532" lon="6.18602">
        <ele>904.2573242</ele>
        <time>2013-08-26T07:50:22Z</time>
      </trkpt>
      <trkpt lat="44.44528" lon="6.18549">
        <ele>903.2958984</ele>
        <time>2013-08-26T07:50:37Z</time>
      </trkpt>
      <trkpt lat="44.44548" lon="6.18508">
        <ele>901.373291</ele>
        <time>2013-08-26T07:50:50Z</time>
      </trkpt>
      <trkpt lat="44.44599" lon="6.18481">
        <ele>901.8540039</ele>
        <time>2013-08-26T07:51:07Z</time>
      </trkpt>
      <trkpt lat="44.4466" lon="6.18486">
        <ele>899.4506836</ele>
        <time>2013-08-26T07:51:24Z</time>
      </trkpt>
      <trkpt lat="44.44705" lon="6.18514">
        <ele>897.5280762</ele>
        <time>2013-08-26T07:51:36Z</time>
      </trkpt>
      <trkpt lat="44.44716" lon="6.18501">
        <ele>897.5280762</ele>
        <time>2013-08-26T07:51:42Z</time>
      </trkpt>
      <trkpt lat="44.44751" lon="6.18449">
        <ele>896.0861816</ele>
        <time>2013-08-26T07:51:58Z</time>
      </trkpt>
      <trkpt lat="44.44774" lon="6.18443">
        <ele>892.2409668</ele>
        <time>2013-08-26T07:52:08Z</time>
      </trkpt>
      <trkpt lat="44.44781" lon="6.18446">
        <ele>892.2409668</ele>
        <time>2013-08-26T07:52:11Z</time>
      </trkpt>
      <trkpt lat="44.44804" lon="6.18452">
        <ele>889.8374023</ele>
        <time>2013-08-26T07:52:20Z</time>
      </trkpt>
      <trkpt lat="44.44816" lon="6.18413">
        <ele>888.8762207</ele>
        <time>2013-08-26T07:52:32Z</time>
      </trkpt>
      <trkpt lat="44.44843" lon="6.18401">
        <ele>885.9921875</ele>
        <time>2013-08-26T07:52:42Z</time>
      </trkpt>
      <trkpt lat="44.44849" lon="6.18399">
        <ele>885.0310059</ele>
        <time>2013-08-26T07:52:44Z</time>
      </trkpt>
      <trkpt lat="44.44876" lon="6.18389">
        <ele>882.6276855</ele>
        <time>2013-08-26T07:52:54Z</time>
      </trkpt>
      <trkpt lat="44.44899" lon="6.18358">
        <ele>880.2243652</ele>
        <time>2013-08-26T07:53:05Z</time>
      </trkpt>
      <trkpt lat="44.4489" lon="6.18335">
        <ele>877.8210449</ele>
        <time>2013-08-26T07:53:13Z</time>
      </trkpt>
      <trkpt lat="44.44871" lon="6.18354">
        <ele>875.4174805</ele>
        <time>2013-08-26T07:53:23Z</time>
      </trkpt>
      <trkpt lat="44.4484" lon="6.18354">
        <ele>873.0144043</ele>
        <time>2013-08-26T07:53:34Z</time>
      </trkpt>
      <trkpt lat="44.44811" lon="6.18347">
        <ele>870.611084</ele>
        <time>2013-08-26T07:53:46Z</time>
      </trkpt>
      <trkpt lat="44.44808" lon="6.18349">
        <ele>870.1303711</ele>
        <time>2013-08-26T07:53:48Z</time>
      </trkpt>
      <trkpt lat="44.44804" lon="6.18332">
        <ele>869.1691895</ele>
        <time>2013-08-26T07:53:57Z</time>
      </trkpt>
      <trkpt lat="44.448" lon="6.1829">
        <ele>865.8046875</ele>
        <time>2013-08-26T07:54:11Z</time>
      </trkpt>
      <trkpt lat="44.44787" lon="6.18255">
        <ele>862.4399414</ele>
        <time>2013-08-26T07:54:22Z</time>
      </trkpt>
      <trkpt lat="44.44774" lon="6.18224">
        <ele>859.5559082</ele>
        <time>2013-08-26T07:54:32Z</time>
      </trkpt>
      <trkpt lat="44.44757" lon="6.18195">
        <ele>856.671875</ele>
        <time>2013-08-26T07:54:44Z</time>
      </trkpt>
      <trkpt lat="44.4474" lon="6.18145">
        <ele>853.7880859</ele>
        <time>2013-08-26T07:54:57Z</time>
      </trkpt>
      <trkpt lat="44.44723" lon="6.18113">
        <ele>851.3847656</ele>
        <time>2013-08-26T07:55:08Z</time>
      </trkpt>
      <trkpt lat="44.44712" lon="6.18071">
        <ele>848.0202637</ele>
        <time>2013-08-26T07:55:20Z</time>
      </trkpt>
      <trkpt lat="44.44703" lon="6.18036">
        <ele>845.6169434</ele>
        <time>2013-08-26T07:55:31Z</time>
      </trkpt>
      <trkpt lat="44.44684" lon="6.18052">
        <ele>844.6555176</ele>
        <time>2013-08-26T07:55:41Z</time>
      </trkpt>
      <trkpt lat="44.44684" lon="6.18055">
        <ele>844.6555176</ele>
        <time>2013-08-26T07:55:42Z</time>
      </trkpt>
      <trkpt lat="44.44672" lon="6.18083">
        <ele>841.7714844</ele>
        <time>2013-08-26T07:55:56Z</time>
      </trkpt>
      <trkpt lat="44.4466" lon="6.18062">
        <ele>839.848877</ele>
        <time>2013-08-26T07:56:05Z</time>
      </trkpt>
      <trkpt lat="44.44641" lon="6.18016">
        <ele>836.0036621</ele>
        <time>2013-08-26T07:56:20Z</time>
      </trkpt>
      <trkpt lat="44.44642" lon="6.17975">
        <ele>833.6003418</ele>
        <time>2013-08-26T07:56:32Z</time>
      </trkpt>
      <trkpt lat="44.44632" lon="6.17939">
        <ele>830.2358398</ele>
        <time>2013-08-26T07:56:43Z</time>
      </trkpt>
      <trkpt lat="44.44623" lon="6.17914">
        <ele>827.8322754</ele>
        <time>2013-08-26T07:56:53Z</time>
      </trkpt>
      <trkpt lat="44.44639" lon="6.1792">
        <ele>825.909668</ele>
        <time>2013-08-26T07:57:02Z</time>
      </trkpt>
      <trkpt lat="44.44647" lon="6.17934">
        <ele>824.9484863</ele>
        <time>2013-08-26T07:57:08Z</time>
      </trkpt>
      <trkpt lat="44.44659" lon="6.1796">
        <ele>823.5065918</ele>
        <time>2013-08-26T07:57:18Z</time>
      </trkpt>
      <trkpt lat="44.44673" lon="6.17937">
        <ele>820.6225586</ele>
        <time>2013-08-26T07:57:30Z</time>
      </trkpt>
      <trkpt lat="44.44687" lon="6.17901">
        <ele>818.2192383</ele>
        <time>2013-08-26T07:57:45Z</time>
      </trkpt>
      <trkpt lat="44.44715" lon="6.17898">
        <ele>814.8547363</ele>
        <time>2013-08-26T07:57:57Z</time>
      </trkpt>
      <trkpt lat="44.44751" lon="6.17902">
        <ele>811.4899902</ele>
        <time>2013-08-26T07:58:09Z</time>
      </trkpt>
      <trkpt lat="44.4478" lon="6.17898">
        <ele>808.1254883</ele>
        <time>2013-08-26T07:58:19Z</time>
      </trkpt>
      <trkpt lat="44.448" lon="6.17899">
        <ele>806.6833496</ele>
        <time>2013-08-26T07:58:29Z</time>
      </trkpt>
      <trkpt lat="44.44799" lon="6.17897">
        <ele>807.1640625</ele>
        <time>2013-08-26T07:58:50Z</time>
      </trkpt>
      <trkpt lat="44.44797" lon="6.17894">
        <ele>806.6833496</ele>
        <time>2013-08-26T07:58:52Z</time>
      </trkpt>
      <trkpt lat="44.44794" lon="6.17881">
        <ele>806.2026367</ele>
        <time>2013-08-26T07:58:57Z</time>
      </trkpt>
      <trkpt lat="44.44784" lon="6.17874">
        <ele>805.2414551</ele>
        <time>2013-08-26T07:59:01Z</time>
      </trkpt>
      <trkpt lat="44.44754" lon="6.17862">
        <ele>802.3574219</ele>
        <time>2013-08-26T07:59:12Z</time>
      </trkpt>
      <trkpt lat="44.44719" lon="6.17837">
        <ele>798.9929199</ele>
        <time>2013-08-26T07:59:26Z</time>
      </trkpt>
      <trkpt lat="44.44686" lon="6.17839">
        <ele>797.0703125</ele>
        <time>2013-08-26T07:59:36Z</time>
      </trkpt>
      <trkpt lat="44.44671" lon="6.17825">
        <ele>795.1474609</ele>
        <time>2013-08-26T07:59:46Z</time>
      </trkpt>
      <trkpt lat="44.44647" lon="6.17795">
        <ele>792.2636719</ele>
        <time>2013-08-26T07:59:59Z</time>
      </trkpt>
      <trkpt lat="44.44609" lon="6.17785">
        <ele>789.3796387</ele>
        <time>2013-08-26T08:00:12Z</time>
      </trkpt>
      <trkpt lat="44.44581" lon="6.17816">
        <ele>786.9763184</ele>
        <time>2013-08-26T08:00:25Z</time>
      </trkpt>
      <trkpt lat="44.44561" lon="6.17835">
        <ele>784.0925293</ele>
        <time>2013-08-26T08:00:35Z</time>
      </trkpt>
      <trkpt lat="44.44558" lon="6.17837">
        <ele>783.6118164</ele>
        <time>2013-08-26T08:00:37Z</time>
      </trkpt>
      <trkpt lat="44.44553" lon="6.17825">
        <ele>783.1311035</ele>
        <time>2013-08-26T08:00:43Z</time>
      </trkpt>
      <trkpt lat="44.44554" lon="6.17774">
        <ele>783.1311035</ele>
        <time>2013-08-26T08:00:57Z</time>
      </trkpt>
      <trkpt lat="44.44558" lon="6.17729">
        <ele>786.0151367</ele>
        <time>2013-08-26T08:01:14Z</time>
      </trkpt>
      <trkpt lat="44.44559" lon="6.17721">
        <ele>786.0151367</ele>
        <time>2013-08-26T08:01:17Z</time>
      </trkpt>
      <trkpt lat="44.44538" lon="6.1768">
        <ele>784.0925293</ele>
        <time>2013-08-26T08:01:31Z</time>
      </trkpt>
      <trkpt lat="44.44515" lon="6.1767">
        <ele>782.1699219</ele>
        <time>2013-08-26T08:01:39Z</time>
      </trkpt>
      <trkpt lat="44.44481" lon="6.17666">
        <ele>779.2856445</ele>
        <time>2013-08-26T08:01:51Z</time>
      </trkpt>
      <trkpt lat="44.44441" lon="6.17651">
        <ele>775.9211426</ele>
        <time>2013-08-26T08:02:07Z</time>
      </trkpt>
      <trkpt lat="44.4443" lon="6.17651">
        <ele>773.9985352</ele>
        <time>2013-08-26T08:02:21Z</time>
      </trkpt>
      <trkpt lat="44.44412" lon="6.17657">
        <ele>772.5566406</ele>
        <time>2013-08-26T08:03:41Z</time>
      </trkpt>
      <trkpt lat="44.44407" lon="6.17661">
        <ele>771.1147461</ele>
        <time>2013-08-26T08:03:43Z</time>
      </trkpt>
      <trkpt lat="44.44379" lon="6.17679">
        <ele>768.2307129</ele>
        <time>2013-08-26T08:03:54Z</time>
      </trkpt>
      <trkpt lat="44.44351" lon="6.17694">
        <ele>765.3469238</ele>
        <time>2013-08-26T08:04:06Z</time>
      </trkpt>
      <trkpt lat="44.44348" lon="6.17694">
        <ele>765.3469238</ele>
        <time>2013-08-26T08:04:07Z</time>
      </trkpt>
      <trkpt lat="44.44327" lon="6.17686">
        <ele>762.9433594</ele>
        <time>2013-08-26T08:04:17Z</time>
      </trkpt>
      <trkpt lat="44.44322" lon="6.17689">
        <ele>762.9433594</ele>
        <time>2013-08-26T08:04:19Z</time>
      </trkpt>
      <trkpt lat="44.44308" lon="6.17694">
        <ele>761.020752</ele>
        <time>2013-08-26T08:04:24Z</time>
      </trkpt>
      <trkpt lat="44.44295" lon="6.17679">
        <ele>759.0981445</ele>
        <time>2013-08-26T08:04:31Z</time>
      </trkpt>
      <trkpt lat="44.44272" lon="6.17655">
        <ele>756.2141113</ele>
        <time>2013-08-26T08:04:41Z</time>
      </trkpt>
      <trkpt lat="44.44245" lon="6.17646">
        <ele>752.8496094</ele>
        <time>2013-08-26T08:04:50Z</time>
      </trkpt>
      <trkpt lat="44.44222" lon="6.1763">
        <ele>749.9658203</ele>
        <time>2013-08-26T08:04:58Z</time>
      </trkpt>
      <trkpt lat="44.442" lon="6.17599">
        <ele>746.6010742</ele>
        <time>2013-08-26T08:05:08Z</time>
      </trkpt>
      <trkpt lat="44.44186" lon="6.17576">
        <ele>745.1589355</ele>
        <time>2013-08-26T08:05:16Z</time>
      </trkpt>
      <trkpt lat="44.44178" lon="6.17558">
        <ele>743.717041</ele>
        <time>2013-08-26T08:05:26Z</time>
      </trkpt>
      <trkpt lat="44.44182" lon="6.17564">
        <ele>744.1977539</ele>
        <time>2013-08-26T08:05:54Z</time>
      </trkpt>
      <trkpt lat="44.44183" lon="6.17564">
        <ele>744.1977539</ele>
        <time>2013-08-26T08:05:57Z</time>
      </trkpt>
      <trkpt lat="44.44188" lon="6.17561">
        <ele>743.717041</ele>
        <time>2013-08-26T08:06:01Z</time>
      </trkpt>
      <trkpt lat="44.44201" lon="6.17569">
        <ele>742.2751465</ele>
        <time>2013-08-26T08:06:07Z</time>
      </trkpt>
      <trkpt lat="44.44209" lon="6.17581">
        <ele>740.3525391</ele>
        <time>2013-08-26T08:06:12Z</time>
      </trkpt>
      <trkpt lat="44.44241" lon="6.17597">
        <ele>737.4685059</ele>
        <time>2013-08-26T08:06:24Z</time>
      </trkpt>
      <trkpt lat="44.44283" lon="6.17603">
        <ele>734.1040039</ele>
        <time>2013-08-26T08:06:38Z</time>
      </trkpt>
      <trkpt lat="44.44289" lon="6.17606">
        <ele>733.1425781</ele>
        <time>2013-08-26T08:06:40Z</time>
      </trkpt>
      <trkpt lat="44.44308" lon="6.17617">
        <ele>730.7392578</ele>
        <time>2013-08-26T08:06:47Z</time>
      </trkpt>
      <trkpt lat="44.44313" lon="6.17617">
        <ele>730.2585449</ele>
        <time>2013-08-26T08:06:49Z</time>
      </trkpt>
      <trkpt lat="44.44312" lon="6.17603">
        <ele>727.8552246</ele>
        <time>2013-08-26T08:06:57Z</time>
      </trkpt>
      <trkpt lat="44.44288" lon="6.1758">
        <ele>724.4907227</ele>
        <time>2013-08-26T08:07:11Z</time>
      </trkpt>
      <trkpt lat="44.44267" lon="6.17561">
        <ele>721.6066895</ele>
        <time>2013-08-26T08:07:23Z</time>
      </trkpt>
      <trkpt lat="44.44278" lon="6.17553">
        <ele>719.6843262</ele>
        <time>2013-08-26T08:07:32Z</time>
      </trkpt>
      <trkpt lat="44.44302" lon="6.17566">
        <ele>716.800293</ele>
        <time>2013-08-26T08:07:46Z</time>
      </trkpt>
      <trkpt lat="44.44329" lon="6.17579">
        <ele>713.9160156</ele>
        <time>2013-08-26T08:07:59Z</time>
      </trkpt>
      <trkpt lat="44.44342" lon="6.17587">
        <ele>712.4741211</ele>
        <time>2013-08-26T08:08:05Z</time>
      </trkpt>
      <trkpt lat="44.44344" lon="6.17581">
        <ele>711.9936523</ele>
        <time>2013-08-26T08:08:09Z</time>
      </trkpt>
      <trkpt lat="44.44316" lon="6.17555">
        <ele>709.1096191</ele>
        <time>2013-08-26T08:08:25Z</time>
      </trkpt>
      <trkpt lat="44.44301" lon="6.17528">
        <ele>707.6677246</ele>
        <time>2013-08-26T08:08:35Z</time>
      </trkpt>
      <trkpt lat="44.44277" lon="6.17514">
        <ele>703.8225098</ele>
        <time>2013-08-26T08:08:46Z</time>
      </trkpt>
      <trkpt lat="44.44255" lon="6.17498">
        <ele>700.9384766</ele>
        <time>2013-08-26T08:08:58Z</time>
      </trkpt>
      <trkpt lat="44.44222" lon="6.17467">
        <ele>698.5349121</ele>
        <time>2013-08-26T08:09:09Z</time>
      </trkpt>
      <trkpt lat="44.44216" lon="6.17464">
        <ele>698.0544434</ele>
        <time>2013-08-26T08:09:12Z</time>
      </trkpt>
      <trkpt lat="44.4422" lon="6.1744">
        <ele>696.1318359</ele>
        <time>2013-08-26T08:09:22Z</time>
      </trkpt>
      <trkpt lat="44.44221" lon="6.17438">
        <ele>695.651123</ele>
        <time>2013-08-26T08:09:23Z</time>
      </trkpt>
      <trkpt lat="44.44247" lon="6.17443">
        <ele>694.2092285</ele>
        <time>2013-08-26T08:09:33Z</time>
      </trkpt>
      <trkpt lat="44.44272" lon="6.17447">
        <ele>693.2478027</ele>
        <time>2013-08-26T08:09:45Z</time>
      </trkpt>
      <trkpt lat="44.44287" lon="6.1744">
        <ele>693.7285156</ele>
        <time>2013-08-26T08:10:04Z</time>
      </trkpt>
      <trkpt lat="44.44299" lon="6.17442">
        <ele>692.2866211</ele>
        <time>2013-08-26T08:10:11Z</time>
      </trkpt>
      <trkpt lat="44.44302" lon="6.1744">
        <ele>692.2866211</ele>
        <time>2013-08-26T08:10:13Z</time>
      </trkpt>
      <trkpt lat="44.44336" lon="6.17444">
        <ele>693.7285156</ele>
        <time>2013-08-26T08:10:29Z</time>
      </trkpt>
      <trkpt lat="44.44365" lon="6.17435">
        <ele>694.2092285</ele>
        <time>2013-08-26T08:10:43Z</time>
      </trkpt>
      <trkpt lat="44.44394" lon="6.17427">
        <ele>693.2478027</ele>
        <time>2013-08-26T08:10:54Z</time>
      </trkpt>
      <trkpt lat="44.44403" lon="6.17426">
        <ele>692.767334</ele>
        <time>2013-08-26T08:11:05Z</time>
      </trkpt>
      <trkpt lat="44.44401" lon="6.17427">
        <ele>692.767334</ele>
        <time>2013-08-26T08:11:21Z</time>
      </trkpt>
      <trkpt lat="44.44399" lon="6.17426">
        <ele>693.2478027</ele>
        <time>2013-08-26T08:11:38Z</time>
      </trkpt>
      <trkpt lat="44.44393" lon="6.17423">
        <ele>693.7285156</ele>
        <time>2013-08-26T08:11:45Z</time>
      </trkpt>
      <trkpt lat="44.44387" lon="6.17421">
        <ele>694.2092285</ele>
        <time>2013-08-26T08:12:01Z</time>
      </trkpt>
      <trkpt lat="44.44385" lon="6.1742">
        <ele>694.6896973</ele>
        <time>2013-08-26T08:12:13Z</time>
      </trkpt>
      <trkpt lat="44.44369" lon="6.17422">
        <ele>696.6125488</ele>
        <time>2013-08-26T08:12:35Z</time>
      </trkpt>
      <trkpt lat="44.44369" lon="6.17425">
        <ele>696.6125488</ele>
        <time>2013-08-26T08:12:56Z</time>
      </trkpt>
      <trkpt lat="44.44366" lon="6.17423">
        <ele>696.6125488</ele>
        <time>2013-08-26T08:12:59Z</time>
      </trkpt>
      <trkpt lat="44.44357" lon="6.17418">
        <ele>698.0544434</ele>
        <time>2013-08-26T08:13:07Z</time>
      </trkpt>
      <trkpt lat="44.44364" lon="6.17389">
        <ele>699.015625</ele>
        <time>2013-08-26T08:13:24Z</time>
      </trkpt>
      <trkpt lat="44.44374" lon="6.17385">
        <ele>699.4963379</ele>
        <time>2013-08-26T08:13:30Z</time>
      </trkpt>
      <trkpt lat="44.44377" lon="6.17379">
        <ele>699.4963379</ele>
        <time>2013-08-26T08:13:34Z</time>
      </trkpt>
      <trkpt lat="44.44386" lon="6.17377">
        <ele>699.9770508</ele>
        <time>2013-08-26T08:13:39Z</time>
      </trkpt>
      <trkpt lat="44.44395" lon="6.17374">
        <ele>701.4191895</ele>
        <time>2013-08-26T08:13:45Z</time>
      </trkpt>
      <trkpt lat="44.44398" lon="6.17369">
        <ele>700.9384766</ele>
        <time>2013-08-26T08:13:49Z</time>
      </trkpt>
      <trkpt lat="44.44409" lon="6.17373">
        <ele>701.8999023</ele>
        <time>2013-08-26T08:13:53Z</time>
      </trkpt>
      <trkpt lat="44.44415" lon="6.17371">
        <ele>701.8999023</ele>
        <time>2013-08-26T08:13:57Z</time>
      </trkpt>
      <trkpt lat="44.44424" lon="6.17366">
        <ele>702.861084</ele>
        <time>2013-08-26T08:14:05Z</time>
      </trkpt>
      <trkpt lat="44.44428" lon="6.1736">
        <ele>703.8225098</ele>
        <time>2013-08-26T08:14:10Z</time>
      </trkpt>
      <trkpt lat="44.44438" lon="6.17355">
        <ele>705.2644043</ele>
        <time>2013-08-26T08:14:18Z</time>
      </trkpt>
      <trkpt lat="44.44455" lon="6.17356">
        <ele>706.7062988</ele>
        <time>2013-08-26T08:14:27Z</time>
      </trkpt>
      <trkpt lat="44.44458" lon="6.17352">
        <ele>707.1870117</ele>
        <time>2013-08-26T08:14:31Z</time>
      </trkpt>
      <trkpt lat="44.44453" lon="6.17355">
        <ele>708.6289063</ele>
        <time>2013-08-26T08:14:45Z</time>
      </trkpt>
      <trkpt lat="44.44462" lon="6.17341">
        <ele>709.1096191</ele>
        <time>2013-08-26T08:15:07Z</time>
      </trkpt>
      <trkpt lat="44.44455" lon="6.17337">
        <ele>708.6289063</ele>
        <time>2013-08-26T08:17:22Z</time>
      </trkpt>
      <trkpt lat="44.44457" lon="6.17328">
        <ele>709.1096191</ele>
        <time>2013-08-26T08:17:40Z</time>
      </trkpt>
      <trkpt lat="44.44457" lon="6.17326">
        <ele>709.1096191</ele>
        <time>2013-08-26T08:17:42Z</time>
      </trkpt>
      <trkpt lat="44.44454" lon="6.1731">
        <ele>710.5515137</ele>
        <time>2013-08-26T08:17:53Z</time>
      </trkpt>
      <trkpt lat="44.44451" lon="6.17299">
        <ele>711.0322266</ele>
        <time>2013-08-26T08:18:11Z</time>
      </trkpt>
      <trkpt lat="44.44453" lon="6.17298">
        <ele>711.0322266</ele>
        <time>2013-08-26T08:18:13Z</time>
      </trkpt>
      <trkpt lat="44.44452" lon="6.17291">
        <ele>711.9936523</ele>
        <time>2013-08-26T08:18:18Z</time>
      </trkpt>
      <trkpt lat="44.44452" lon="6.17286">
        <ele>711.9936523</ele>
        <time>2013-08-26T08:18:21Z</time>
      </trkpt>
      <trkpt lat="44.4447" lon="6.17276">
        <ele>715.8388672</ele>
        <time>2013-08-26T08:18:39Z</time>
      </trkpt>
      <trkpt lat="44.44487" lon="6.17291">
        <ele>718.7229004</ele>
        <time>2013-08-26T08:18:55Z</time>
      </trkpt>
      <trkpt lat="44.44494" lon="6.173">
        <ele>719.6843262</ele>
        <time>2013-08-26T08:19:05Z</time>
      </trkpt>
      <trkpt lat="44.44499" lon="6.17302">
        <ele>720.6455078</ele>
        <time>2013-08-26T08:19:09Z</time>
      </trkpt>
      <trkpt lat="44.44503" lon="6.173">
        <ele>721.1262207</ele>
        <time>2013-08-26T08:19:13Z</time>
      </trkpt>
      <trkpt lat="44.44509" lon="6.17272">
        <ele>724.9714355</ele>
        <time>2013-08-26T08:19:34Z</time>
      </trkpt>
      <trkpt lat="44.44514" lon="6.17244">
        <ele>728.8166504</ele>
        <time>2013-08-26T08:19:53Z</time>
      </trkpt>
      <trkpt lat="44.44514" lon="6.17243">
        <ele>728.8166504</ele>
        <time>2013-08-26T08:19:54Z</time>
      </trkpt>
      <trkpt lat="44.44532" lon="6.17222">
        <ele>731.7004395</ele>
        <time>2013-08-26T08:20:18Z</time>
      </trkpt>
      <trkpt lat="44.44548" lon="6.17233">
        <ele>734.5847168</ele>
        <time>2013-08-26T08:20:40Z</time>
      </trkpt>
      <trkpt lat="44.44549" lon="6.17233">
        <ele>734.5847168</ele>
        <time>2013-08-26T08:20:41Z</time>
      </trkpt>
      <trkpt lat="44.44564" lon="6.17262">
        <ele>737.9492188</ele>
        <time>2013-08-26T08:21:04Z</time>
      </trkpt>
      <trkpt lat="44.44584" lon="6.17259">
        <ele>740.3525391</ele>
        <time>2013-08-26T08:21:25Z</time>
      </trkpt>
      <trkpt lat="44.44588" lon="6.17225">
        <ele>742.7558594</ele>
        <time>2013-08-26T08:21:48Z</time>
      </trkpt>
      <trkpt lat="44.44588" lon="6.17223">
        <ele>742.7558594</ele>
        <time>2013-08-26T08:21:50Z</time>
      </trkpt>
      <trkpt lat="44.44589" lon="6.17215">
        <ele>743.2363281</ele>
        <time>2013-08-26T08:21:55Z</time>
      </trkpt>
      <trkpt lat="44.44588" lon="6.17211">
        <ele>743.717041</ele>
        <time>2013-08-26T08:21:58Z</time>
      </trkpt>
      <trkpt lat="44.44593" lon="6.17194">
        <ele>745.6396484</ele>
        <time>2013-08-26T08:22:10Z</time>
      </trkpt>
      <trkpt lat="44.44618" lon="6.17186">
        <ele>748.5236816</ele>
        <time>2013-08-26T08:22:34Z</time>
      </trkpt>
      <trkpt lat="44.44626" lon="6.17179">
        <ele>749.4851074</ele>
        <time>2013-08-26T08:22:43Z</time>
      </trkpt>
      <trkpt lat="44.44637" lon="6.17157">
        <ele>751.8884277</ele>
        <time>2013-08-26T08:23:00Z</time>
      </trkpt>
      <trkpt lat="44.44638" lon="6.17148">
        <ele>751.8884277</ele>
        <time>2013-08-26T08:23:05Z</time>
      </trkpt>
      <trkpt lat="44.44641" lon="6.17142">
        <ele>752.3688965</ele>
        <time>2013-08-26T08:23:20Z</time>
      </trkpt>
      <trkpt lat="44.44639" lon="6.17144">
        <ele>752.8496094</ele>
        <time>2013-08-26T08:23:35Z</time>
      </trkpt>
      <trkpt lat="44.44623" lon="6.17162">
        <ele>753.3303223</ele>
        <time>2013-08-26T08:23:49Z</time>
      </trkpt>
      <trkpt lat="44.44599" lon="6.17169">
        <ele>755.7336426</ele>
        <time>2013-08-26T08:24:08Z</time>
      </trkpt>
      <trkpt lat="44.44571" lon="6.17169">
        <ele>758.6174316</ele>
        <time>2013-08-26T08:24:33Z</time>
      </trkpt>
      <trkpt lat="44.44544" lon="6.17161">
        <ele>761.5014648</ele>
        <time>2013-08-26T08:24:56Z</time>
      </trkpt>
      <trkpt lat="44.44519" lon="6.1715">
        <ele>764.8662109</ele>
        <time>2013-08-26T08:25:17Z</time>
      </trkpt>
      <trkpt lat="44.44489" lon="6.1714">
        <ele>767.2695313</ele>
        <time>2013-08-26T08:25:41Z</time>
      </trkpt>
      <trkpt lat="44.44467" lon="6.17142">
        <ele>769.1921387</ele>
        <time>2013-08-26T08:26:00Z</time>
      </trkpt>
      <trkpt lat="44.44432" lon="6.17138">
        <ele>770.6340332</ele>
        <time>2013-08-26T08:26:26Z</time>
      </trkpt>
      <trkpt lat="44.44407" lon="6.17151">
        <ele>772.0759277</ele>
        <time>2013-08-26T08:26:44Z</time>
      </trkpt>
      <trkpt lat="44.44384" lon="6.17164">
        <ele>774.9599609</ele>
        <time>2013-08-26T08:27:06Z</time>
      </trkpt>
      <trkpt lat="44.44373" lon="6.17194">
        <ele>777.3632813</ele>
        <time>2013-08-26T08:27:27Z</time>
      </trkpt>
      <trkpt lat="44.44364" lon="6.17205">
        <ele>779.2856445</ele>
        <time>2013-08-26T08:27:39Z</time>
      </trkpt>
      <trkpt lat="44.44353" lon="6.17187">
        <ele>782.1699219</ele>
        <time>2013-08-26T08:27:56Z</time>
      </trkpt>
      <trkpt lat="44.44345" lon="6.1716">
        <ele>785.5344238</ele>
        <time>2013-08-26T08:28:17Z</time>
      </trkpt>
      <trkpt lat="44.44329" lon="6.17143">
        <ele>787.9377441</ele>
        <time>2013-08-26T08:28:37Z</time>
      </trkpt>
      <trkpt lat="44.44309" lon="6.17147">
        <ele>791.3022461</ele>
        <time>2013-08-26T08:28:55Z</time>
      </trkpt>
      <trkpt lat="44.44298" lon="6.17147">
        <ele>792.2636719</ele>
        <time>2013-08-26T08:29:12Z</time>
      </trkpt>
      <trkpt lat="44.44295" lon="6.17127">
        <ele>795.1474609</ele>
        <time>2013-08-26T08:29:34Z</time>
      </trkpt>
      <trkpt lat="44.44292" lon="6.17122">
        <ele>795.6281738</ele>
        <time>2013-08-26T08:29:56Z</time>
      </trkpt>
      <trkpt lat="44.44292" lon="6.17122">
        <ele>795.6281738</ele>
        <time>2013-08-26T08:30:37Z</time>
      </trkpt>
      <trkpt lat="44.44285" lon="6.17119">
        <ele>796.5898438</ele>
        <time>2013-08-26T08:30:43Z</time>
      </trkpt>
      <trkpt lat="44.44263" lon="6.17128">
        <ele>799.9543457</ele>
        <time>2013-08-26T08:31:00Z</time>
      </trkpt>
      <trkpt lat="44.44245" lon="6.17109">
        <ele>802.8381348</ele>
        <time>2013-08-26T08:31:19Z</time>
      </trkpt>
      <trkpt lat="44.44245" lon="6.17092">
        <ele>804.7607422</ele>
        <time>2013-08-26T08:31:31Z</time>
      </trkpt>
      <trkpt lat="44.44226" lon="6.17079">
        <ele>808.1254883</ele>
        <time>2013-08-26T08:31:50Z</time>
      </trkpt>
      <trkpt lat="44.44206" lon="6.17098">
        <ele>811.0092773</ele>
        <time>2013-08-26T08:32:12Z</time>
      </trkpt>
      <trkpt lat="44.44183" lon="6.17102">
        <ele>813.8933105</ele>
        <time>2013-08-26T08:32:32Z</time>
      </trkpt>
      <trkpt lat="44.44169" lon="6.17098">
        <ele>815.8161621</ele>
        <time>2013-08-26T08:32:49Z</time>
      </trkpt>
      <trkpt lat="44.44167" lon="6.17099">
        <ele>815.8161621</ele>
        <time>2013-08-26T08:32:52Z</time>
      </trkpt>
      <trkpt lat="44.44153" lon="6.17106">
        <ele>818.2192383</ele>
        <time>2013-08-26T08:33:11Z</time>
      </trkpt>
      <trkpt lat="44.44134" lon="6.17108">
        <ele>820.6225586</ele>
        <time>2013-08-26T08:33:35Z</time>
      </trkpt>
      <trkpt lat="44.44131" lon="6.17107">
        <ele>820.6225586</ele>
        <time>2013-08-26T08:33:39Z</time>
      </trkpt>
      <trkpt lat="44.44113" lon="6.17091">
        <ele>823.5065918</ele>
        <time>2013-08-26T08:34:03Z</time>
      </trkpt>
      <trkpt lat="44.44111" lon="6.1709">
        <ele>823.9870605</ele>
        <time>2013-08-26T08:34:25Z</time>
      </trkpt>
      <trkpt lat="44.441" lon="6.1709">
        <ele>825.4289551</ele>
        <time>2013-08-26T08:35:08Z</time>
      </trkpt>
      <trkpt lat="44.44092" lon="6.17096">
        <ele>826.8710938</ele>
        <time>2013-08-26T08:35:17Z</time>
      </trkpt>
      <trkpt lat="44.44078" lon="6.17115">
        <ele>828.7939453</ele>
        <time>2013-08-26T08:35:40Z</time>
      </trkpt>
      <trkpt lat="44.44076" lon="6.17115">
        <ele>828.7939453</ele>
        <time>2013-08-26T08:35:49Z</time>
      </trkpt>
      <trkpt lat="44.44048" lon="6.17119">
        <ele>830.7165527</ele>
        <time>2013-08-26T08:36:12Z</time>
      </trkpt>
      <trkpt lat="44.4403" lon="6.17128">
        <ele>832.6391602</ele>
        <time>2013-08-26T08:36:31Z</time>
      </trkpt>
      <trkpt lat="44.44018" lon="6.17121">
        <ele>833.6003418</ele>
        <time>2013-08-26T08:36:45Z</time>
      </trkpt>
      <trkpt lat="44.44008" lon="6.17114">
        <ele>835.0424805</ele>
        <time>2013-08-26T08:37:08Z</time>
      </trkpt>
      <trkpt lat="44.44008" lon="6.17113">
        <ele>834.5617676</ele>
        <time>2013-08-26T08:37:28Z</time>
      </trkpt>
      <trkpt lat="44.44011" lon="6.17105">
        <ele>835.0424805</ele>
        <time>2013-08-26T08:37:47Z</time>
      </trkpt>
      <trkpt lat="44.44012" lon="6.17105">
        <ele>834.5617676</ele>
        <time>2013-08-26T08:37:53Z</time>
      </trkpt>
      <trkpt lat="44.44017" lon="6.17104">
        <ele>834.5617676</ele>
        <time>2013-08-26T08:37:57Z</time>
      </trkpt>
      <trkpt lat="44.44041" lon="6.17099">
        <ele>836.9648438</ele>
        <time>2013-08-26T08:38:15Z</time>
      </trkpt>
      <trkpt lat="44.44063" lon="6.17084">
        <ele>840.3295898</ele>
        <time>2013-08-26T08:38:37Z</time>
      </trkpt>
      <trkpt lat="44.44065" lon="6.17081">
        <ele>840.3295898</ele>
        <time>2013-08-26T08:38:40Z</time>
      </trkpt>
      <trkpt lat="44.4408" lon="6.17054">
        <ele>843.2133789</ele>
        <time>2013-08-26T08:39:00Z</time>
      </trkpt>
      <trkpt lat="44.44083" lon="6.17049">
        <ele>843.6940918</ele>
        <time>2013-08-26T08:39:05Z</time>
      </trkpt>
      <trkpt lat="44.44115" lon="6.17051">
        <ele>845.6169434</ele>
        <time>2013-08-26T08:39:29Z</time>
      </trkpt>
      <trkpt lat="44.4414" lon="6.17041">
        <ele>848.0202637</ele>
        <time>2013-08-26T08:39:51Z</time>
      </trkpt>
      <trkpt lat="44.4416" lon="6.17034">
        <ele>850.423584</ele>
        <time>2013-08-26T08:40:08Z</time>
      </trkpt>
      <trkpt lat="44.44182" lon="6.17032">
        <ele>853.307373</ele>
        <time>2013-08-26T08:40:24Z</time>
      </trkpt>
      <trkpt lat="44.44194" lon="6.17013">
        <ele>856.671875</ele>
        <time>2013-08-26T08:40:40Z</time>
      </trkpt>
      <trkpt lat="44.44195" lon="6.16998">
        <ele>857.1525879</ele>
        <time>2013-08-26T08:40:49Z</time>
      </trkpt>
      <trkpt lat="44.44204" lon="6.16973">
        <ele>859.5559082</ele>
        <time>2013-08-26T08:41:07Z</time>
      </trkpt>
      <trkpt lat="44.4421" lon="6.16972">
        <ele>860.517334</ele>
        <time>2013-08-26T08:41:12Z</time>
      </trkpt>
      <trkpt lat="44.44235" lon="6.16981">
        <ele>863.4013672</ele>
        <time>2013-08-26T08:41:31Z</time>
      </trkpt>
      <trkpt lat="44.44259" lon="6.16981">
        <ele>866.2851563</ele>
        <time>2013-08-26T08:41:51Z</time>
      </trkpt>
      <trkpt lat="44.44269" lon="6.16981">
        <ele>867.246582</ele>
        <time>2013-08-26T08:41:59Z</time>
      </trkpt>
      <trkpt lat="44.44273" lon="6.16977">
        <ele>867.246582</ele>
        <time>2013-08-26T08:42:03Z</time>
      </trkpt>
      <trkpt lat="44.44275" lon="6.16975">
        <ele>867.246582</ele>
        <time>2013-08-26T08:42:05Z</time>
      </trkpt>
      <trkpt lat="44.44276" lon="6.16967">
        <ele>868.2077637</ele>
        <time>2013-08-26T08:42:10Z</time>
      </trkpt>
      <trkpt lat="44.44271" lon="6.16961">
        <ele>868.6884766</ele>
        <time>2013-08-26T08:42:16Z</time>
      </trkpt>
      <trkpt lat="44.44245" lon="6.16967">
        <ele>870.611084</ele>
        <time>2013-08-26T08:42:36Z</time>
      </trkpt>
      <trkpt lat="44.44237" lon="6.16967">
        <ele>870.611084</ele>
        <time>2013-08-26T08:42:41Z</time>
      </trkpt>
      <trkpt lat="44.44231" lon="6.16961">
        <ele>871.5722656</ele>
        <time>2013-08-26T08:42:47Z</time>
      </trkpt>
      <trkpt lat="44.44206" lon="6.16944">
        <ele>873.9755859</ele>
        <time>2013-08-26T08:43:11Z</time>
      </trkpt>
      <trkpt lat="44.44188" lon="6.16936">
        <ele>875.8981934</ele>
        <time>2013-08-26T08:43:26Z</time>
      </trkpt>
      <trkpt lat="44.44172" lon="6.16963">
        <ele>878.3017578</ele>
        <time>2013-08-26T08:43:48Z</time>
      </trkpt>
      <trkpt lat="44.44162" lon="6.16973">
        <ele>879.2629395</ele>
        <time>2013-08-26T08:43:57Z</time>
      </trkpt>
      <trkpt lat="44.44128" lon="6.16973">
        <ele>882.6276855</ele>
        <time>2013-08-26T08:44:24Z</time>
      </trkpt>
      <trkpt lat="44.44127" lon="6.16972">
        <ele>882.6276855</ele>
        <time>2013-08-26T08:44:25Z</time>
      </trkpt>
      <trkpt lat="44.44104" lon="6.16962">
        <ele>885.0310059</ele>
        <time>2013-08-26T08:44:46Z</time>
      </trkpt>
      <trkpt lat="44.44083" lon="6.1695">
        <ele>888.3955078</ele>
        <time>2013-08-26T08:45:06Z</time>
      </trkpt>
      <trkpt lat="44.44065" lon="6.16946">
        <ele>889.8374023</ele>
        <time>2013-08-26T08:45:21Z</time>
      </trkpt>
      <trkpt lat="44.44061" lon="6.16953">
        <ele>891.2792969</ele>
        <time>2013-08-26T08:45:27Z</time>
      </trkpt>
      <trkpt lat="44.44046" lon="6.16969">
        <ele>894.1635742</ele>
        <time>2013-08-26T08:45:45Z</time>
      </trkpt>
      <trkpt lat="44.44035" lon="6.16943">
        <ele>897.0473633</ele>
        <time>2013-08-26T08:46:06Z</time>
      </trkpt>
      <trkpt lat="44.44017" lon="6.16927">
        <ele>899.4506836</ele>
        <time>2013-08-26T08:46:26Z</time>
      </trkpt>
      <trkpt lat="44.44007" lon="6.16919">
        <ele>901.373291</ele>
        <time>2013-08-26T08:46:36Z</time>
      </trkpt>
      <trkpt lat="44.44004" lon="6.16887">
        <ele>903.7766113</ele>
        <time>2013-08-26T08:46:57Z</time>
      </trkpt>
      <trkpt lat="44.44015" lon="6.16853">
        <ele>907.1411133</ele>
        <time>2013-08-26T08:47:23Z</time>
      </trkpt>
      <trkpt lat="44.44013" lon="6.16822">
        <ele>908.583252</ele>
        <time>2013-08-26T08:47:42Z</time>
      </trkpt>
      <trkpt lat="44.43992" lon="6.16805">
        <ele>911.947998</ele>
        <time>2013-08-26T08:48:06Z</time>
      </trkpt>
      <trkpt lat="44.43971" lon="6.16794">
        <ele>914.8317871</ele>
        <time>2013-08-26T08:48:27Z</time>
      </trkpt>
      <trkpt lat="44.43958" lon="6.16783">
        <ele>917.2351074</ele>
        <time>2013-08-26T08:48:43Z</time>
      </trkpt>
      <trkpt lat="44.43948" lon="6.16756">
        <ele>919.6384277</ele>
        <time>2013-08-26T08:49:04Z</time>
      </trkpt>
      <trkpt lat="44.4394" lon="6.1675">
        <ele>921.0803223</ele>
        <time>2013-08-26T08:49:12Z</time>
      </trkpt>
      <trkpt lat="44.43925" lon="6.16717">
        <ele>923.0029297</ele>
        <time>2013-08-26T08:49:37Z</time>
      </trkpt>
      <trkpt lat="44.43923" lon="6.16714">
        <ele>923.4836426</ele>
        <time>2013-08-26T08:49:40Z</time>
      </trkpt>
      <trkpt lat="44.43897" lon="6.16714">
        <ele>926.3676758</ele>
        <time>2013-08-26T08:50:03Z</time>
      </trkpt>
      <trkpt lat="44.43885" lon="6.16715">
        <ele>927.8095703</ele>
        <time>2013-08-26T08:50:12Z</time>
      </trkpt>
      <trkpt lat="44.43877" lon="6.16696">
        <ele>929.7321777</ele>
        <time>2013-08-26T08:50:27Z</time>
      </trkpt>
      <trkpt lat="44.43861" lon="6.16672">
        <ele>933.0966797</ele>
        <time>2013-08-26T08:50:48Z</time>
      </trkpt>
      <trkpt lat="44.43847" lon="6.16648">
        <ele>935.5</ele>
        <time>2013-08-26T08:51:08Z</time>
      </trkpt>
      <trkpt lat="44.43842" lon="6.16616">
        <ele>938.3840332</ele>
        <time>2013-08-26T08:51:30Z</time>
      </trkpt>
      <trkpt lat="44.43826" lon="6.166">
        <ele>940.3068848</ele>
        <time>2013-08-26T08:51:49Z</time>
      </trkpt>
      <trkpt lat="44.43802" lon="6.16607">
        <ele>943.6713867</ele>
        <time>2013-08-26T08:52:12Z</time>
      </trkpt>
      <trkpt lat="44.43777" lon="6.16602">
        <ele>946.074707</ele>
        <time>2013-08-26T08:52:32Z</time>
      </trkpt>
      <trkpt lat="44.43777" lon="6.16599">
        <ele>946.5554199</ele>
        <time>2013-08-26T08:52:34Z</time>
      </trkpt>
      <trkpt lat="44.43749" lon="6.16588">
        <ele>949.439209</ele>
        <time>2013-08-26T08:52:58Z</time>
      </trkpt>
      <trkpt lat="44.43725" lon="6.16579">
        <ele>951.8425293</ele>
        <time>2013-08-26T08:53:20Z</time>
      </trkpt>
      <trkpt lat="44.43719" lon="6.16574">
        <ele>952.8037109</ele>
        <time>2013-08-26T08:53:27Z</time>
      </trkpt>
      <trkpt lat="44.4371" lon="6.16543">
        <ele>955.2070313</ele>
        <time>2013-08-26T08:53:49Z</time>
      </trkpt>
      <trkpt lat="44.43707" lon="6.16542">
        <ele>955.2070313</ele>
        <time>2013-08-26T08:54:25Z</time>
      </trkpt>
      <trkpt lat="44.43707" lon="6.16541">
        <ele>955.6877441</ele>
        <time>2013-08-26T08:54:59Z</time>
      </trkpt>
      <trkpt lat="44.43711" lon="6.16533">
        <ele>956.168457</ele>
        <time>2013-08-26T08:55:23Z</time>
      </trkpt>
      <trkpt lat="44.43713" lon="6.1653">
        <ele>955.2070313</ele>
        <time>2013-08-26T08:55:39Z</time>
      </trkpt>
      <trkpt lat="44.43723" lon="6.16542">
        <ele>956.168457</ele>
        <time>2013-08-26T08:58:03Z</time>
      </trkpt>
      <trkpt lat="44.43729" lon="6.16553">
        <ele>955.6877441</ele>
        <time>2013-08-26T08:58:27Z</time>
      </trkpt>
      <trkpt lat="44.43729" lon="6.16553">
        <ele>956.168457</ele>
        <time>2013-08-26T08:59:05Z</time>
      </trkpt>
      <trkpt lat="44.43723" lon="6.16533">
        <ele>955.2070313</ele>
        <time>2013-08-26T08:59:25Z</time>
      </trkpt>
      <trkpt lat="44.43722" lon="6.16534">
        <ele>956.168457</ele>
        <time>2013-08-26T09:04:19Z</time>
      </trkpt>
      <trkpt lat="44.43722" lon="6.16534">
        <ele>956.168457</ele>
        <time>2013-08-26T09:04:34Z</time>
      </trkpt>
      <trkpt lat="44.43732" lon="6.16537">
        <ele>956.6491699</ele>
        <time>2013-08-26T09:04:41Z</time>
      </trkpt>
      <trkpt lat="44.43759" lon="6.16542">
        <ele>958.0913086</ele>
        <time>2013-08-26T09:05:02Z</time>
      </trkpt>
      <trkpt lat="44.43766" lon="6.1654">
        <ele>959.0524902</ele>
        <time>2013-08-26T09:05:09Z</time>
      </trkpt>
      <trkpt lat="44.43793" lon="6.16545">
        <ele>961.9365234</ele>
        <time>2013-08-26T09:05:33Z</time>
      </trkpt>
      <trkpt lat="44.43797" lon="6.16543">
        <ele>962.8977051</ele>
        <time>2013-08-26T09:05:37Z</time>
      </trkpt>
      <trkpt lat="44.43799" lon="6.16521">
        <ele>965.3010254</ele>
        <time>2013-08-26T09:05:54Z</time>
      </trkpt>
      <trkpt lat="44.43795" lon="6.16517">
        <ele>966.262207</ele>
        <time>2013-08-26T09:05:58Z</time>
      </trkpt>
      <trkpt lat="44.43768" lon="6.16504">
        <ele>968.1848145</ele>
        <time>2013-08-26T09:06:23Z</time>
      </trkpt>
      <trkpt lat="44.43753" lon="6.16476">
        <ele>971.0688477</ele>
        <time>2013-08-26T09:06:45Z</time>
      </trkpt>
      <trkpt lat="44.43736" lon="6.16447">
        <ele>974.4335938</ele>
        <time>2013-08-26T09:07:11Z</time>
      </trkpt>
      <trkpt lat="44.43716" lon="6.16424">
        <ele>976.8369141</ele>
        <time>2013-08-26T09:07:35Z</time>
      </trkpt>
      <trkpt lat="44.43706" lon="6.16403">
        <ele>979.7207031</ele>
        <time>2013-08-26T09:07:52Z</time>
      </trkpt>
      <trkpt lat="44.437" lon="6.16377">
        <ele>982.1240234</ele>
        <time>2013-08-26T09:08:09Z</time>
      </trkpt>
      <trkpt lat="44.43699" lon="6.16353">
        <ele>984.5273438</ele>
        <time>2013-08-26T09:08:25Z</time>
      </trkpt>
      <trkpt lat="44.43693" lon="6.16323">
        <ele>986.4499512</ele>
        <time>2013-08-26T09:08:45Z</time>
      </trkpt>
      <trkpt lat="44.43691" lon="6.16315">
        <ele>987.4111328</ele>
        <time>2013-08-26T09:08:51Z</time>
      </trkpt>
      <trkpt lat="44.43682" lon="6.16287">
        <ele>989.8146973</ele>
        <time>2013-08-26T09:09:13Z</time>
      </trkpt>
      <trkpt lat="44.43678" lon="6.16258">
        <ele>991.2565918</ele>
        <time>2013-08-26T09:09:31Z</time>
      </trkpt>
      <trkpt lat="44.43676" lon="6.16251">
        <ele>992.2180176</ele>
        <time>2013-08-26T09:09:35Z</time>
      </trkpt>
      <trkpt lat="44.43676" lon="6.16247">
        <ele>992.2180176</ele>
        <time>2013-08-26T09:09:37Z</time>
      </trkpt>
      <trkpt lat="44.43671" lon="6.1622">
        <ele>994.6210938</ele>
        <time>2013-08-26T09:09:55Z</time>
      </trkpt>
      <trkpt lat="44.43665" lon="6.16193">
        <ele>996.0632324</ele>
        <time>2013-08-26T09:10:13Z</time>
      </trkpt>
      <trkpt lat="44.43652" lon="6.16164">
        <ele>997.9858398</ele>
        <time>2013-08-26T09:10:33Z</time>
      </trkpt>
      <trkpt lat="44.43639" lon="6.16144">
        <ele>998.4663086</ele>
        <time>2013-08-26T09:10:48Z</time>
      </trkpt>
      <trkpt lat="44.43641" lon="6.16138">
        <ele>998.4663086</ele>
        <time>2013-08-26T09:10:53Z</time>
      </trkpt>
      <trkpt lat="44.4365" lon="6.16141">
        <ele>998.9470215</ele>
        <time>2013-08-26T09:11:00Z</time>
      </trkpt>
      <trkpt lat="44.43655" lon="6.16154">
        <ele>999.4277344</ele>
        <time>2013-08-26T09:11:09Z</time>
      </trkpt>
      <trkpt lat="44.43669" lon="6.16171">
        <ele>1000.8696289</ele>
        <time>2013-08-26T09:11:23Z</time>
      </trkpt>
      <trkpt lat="44.43691" lon="6.16199">
        <ele>1004.2346191</ele>
        <time>2013-08-26T09:11:48Z</time>
      </trkpt>
      <trkpt lat="44.43711" lon="6.16217">
        <ele>1006.1569824</ele>
        <time>2013-08-26T09:12:09Z</time>
      </trkpt>
      <trkpt lat="44.43729" lon="6.16239">
        <ele>1009.0410156</ele>
        <time>2013-08-26T09:12:32Z</time>
      </trkpt>
      <trkpt lat="44.43747" lon="6.16266">
        <ele>1011.9250488</ele>
        <time>2013-08-26T09:12:55Z</time>
      </trkpt>
      <trkpt lat="44.43762" lon="6.16289">
        <ele>1014.328125</ele>
        <time>2013-08-26T09:13:14Z</time>
      </trkpt>
      <trkpt lat="44.43785" lon="6.16315">
        <ele>1017.2121582</ele>
        <time>2013-08-26T09:13:40Z</time>
      </trkpt>
      <trkpt lat="44.43805" lon="6.16337">
        <ele>1019.6154785</ele>
        <time>2013-08-26T09:14:03Z</time>
      </trkpt>
      <trkpt lat="44.43829" lon="6.16356">
        <ele>1023.4609375</ele>
        <time>2013-08-26T09:14:28Z</time>
      </trkpt>
      <trkpt lat="44.43854" lon="6.16369">
        <ele>1026.3447266</ele>
        <time>2013-08-26T09:14:51Z</time>
      </trkpt>
      <trkpt lat="44.43861" lon="6.16372">
        <ele>1027.3061523</ele>
        <time>2013-08-26T09:14:58Z</time>
      </trkpt>
      <trkpt lat="44.43865" lon="6.16378">
        <ele>1027.7866211</ele>
        <time>2013-08-26T09:15:03Z</time>
      </trkpt>
      <trkpt lat="44.43866" lon="6.16384">
        <ele>1028.267334</ele>
        <time>2013-08-26T09:15:06Z</time>
      </trkpt>
      <trkpt lat="44.43885" lon="6.16385">
        <ele>1030.6706543</ele>
        <time>2013-08-26T09:15:25Z</time>
      </trkpt>
      <trkpt lat="44.43905" lon="6.16388">
        <ele>1032.5932617</ele>
        <time>2013-08-26T09:15:42Z</time>
      </trkpt>
      <trkpt lat="44.43915" lon="6.16414">
        <ele>1034.996582</ele>
        <time>2013-08-26T09:16:01Z</time>
      </trkpt>
      <trkpt lat="44.43926" lon="6.16433">
        <ele>1036.4387207</ele>
        <time>2013-08-26T09:16:15Z</time>
      </trkpt>
      <trkpt lat="44.43949" lon="6.16433">
        <ele>1038.842041</ele>
        <time>2013-08-26T09:16:36Z</time>
      </trkpt>
      <trkpt lat="44.43973" lon="6.16434">
        <ele>1040.7644043</ele>
        <time>2013-08-26T09:16:55Z</time>
      </trkpt>
      <trkpt lat="44.43989" lon="6.16457">
        <ele>1043.6484375</ele>
        <time>2013-08-26T09:17:15Z</time>
      </trkpt>
      <trkpt lat="44.43994" lon="6.1646">
        <ele>1044.6096191</ele>
        <time>2013-08-26T09:17:19Z</time>
      </trkpt>
      <trkpt lat="44.44021" lon="6.16462">
        <ele>1047.0129395</ele>
        <time>2013-08-26T09:17:41Z</time>
      </trkpt>
      <trkpt lat="44.44031" lon="6.16477">
        <ele>1048.454834</ele>
        <time>2013-08-26T09:17:53Z</time>
      </trkpt>
      <trkpt lat="44.44056" lon="6.16489">
        <ele>1050.3776855</ele>
        <time>2013-08-26T09:18:14Z</time>
      </trkpt>
      <trkpt lat="44.44077" lon="6.16496">
        <ele>1052.7810059</ele>
        <time>2013-08-26T09:18:34Z</time>
      </trkpt>
      <trkpt lat="44.44103" lon="6.16504">
        <ele>1055.6650391</ele>
        <time>2013-08-26T09:18:56Z</time>
      </trkpt>
      <trkpt lat="44.44129" lon="6.16501">
        <ele>1057.5876465</ele>
        <time>2013-08-26T09:19:18Z</time>
      </trkpt>
      <trkpt lat="44.4416" lon="6.16511">
        <ele>1059.9907227</ele>
        <time>2013-08-26T09:19:42Z</time>
      </trkpt>
      <trkpt lat="44.44186" lon="6.16519">
        <ele>1062.394043</ele>
        <time>2013-08-26T09:20:05Z</time>
      </trkpt>
      <trkpt lat="44.44193" lon="6.16521">
        <ele>1062.394043</ele>
        <time>2013-08-26T09:20:10Z</time>
      </trkpt>
      <trkpt lat="44.44197" lon="6.16519">
        <ele>1063.3554688</ele>
        <time>2013-08-26T09:20:14Z</time>
      </trkpt>
      <trkpt lat="44.442" lon="6.16512">
        <ele>1064.3166504</ele>
        <time>2013-08-26T09:20:18Z</time>
      </trkpt>
      <trkpt lat="44.44198" lon="6.16504">
        <ele>1065.2780762</ele>
        <time>2013-08-26T09:20:35Z</time>
      </trkpt>
      <trkpt lat="44.44202" lon="6.1651">
        <ele>1064.7973633</ele>
        <time>2013-08-26T09:20:59Z</time>
      </trkpt>
      <trkpt lat="44.44198" lon="6.16504">
        <ele>1065.7587891</ele>
        <time>2013-08-26T09:24:08Z</time>
      </trkpt>
      <trkpt lat="44.44198" lon="6.16504">
        <ele>1065.7587891</ele>
        <time>2013-08-26T09:24:16Z</time>
      </trkpt>
      <trkpt lat="44.44189" lon="6.16501">
        <ele>1066.2392578</ele>
        <time>2013-08-26T09:24:23Z</time>
      </trkpt>
      <trkpt lat="44.44174" lon="6.16496">
        <ele>1068.1621094</ele>
        <time>2013-08-26T09:24:36Z</time>
      </trkpt>
      <trkpt lat="44.44146" lon="6.16482">
        <ele>1070.5654297</ele>
        <time>2013-08-26T09:25:01Z</time>
      </trkpt>
      <trkpt lat="44.44124" lon="6.16469">
        <ele>1073.9299316</ele>
        <time>2013-08-26T09:25:24Z</time>
      </trkpt>
      <trkpt lat="44.44101" lon="6.16457">
        <ele>1076.333252</ele>
        <time>2013-08-26T09:25:46Z</time>
      </trkpt>
      <trkpt lat="44.44086" lon="6.16449">
        <ele>1077.7751465</ele>
        <time>2013-08-26T09:25:59Z</time>
      </trkpt>
      <trkpt lat="44.44083" lon="6.16446">
        <ele>1078.2558594</ele>
        <time>2013-08-26T09:26:02Z</time>
      </trkpt>
      <trkpt lat="44.4408" lon="6.16442">
        <ele>1078.7365723</ele>
        <time>2013-08-26T09:26:05Z</time>
      </trkpt>
      <trkpt lat="44.44075" lon="6.16437">
        <ele>1079.217041</ele>
        <time>2013-08-26T09:26:10Z</time>
      </trkpt>
      <trkpt lat="44.44059" lon="6.16417">
        <ele>1082.1010742</ele>
        <time>2013-08-26T09:26:30Z</time>
      </trkpt>
      <trkpt lat="44.44053" lon="6.16408">
        <ele>1082.5817871</ele>
        <time>2013-08-26T09:26:38Z</time>
      </trkpt>
      <trkpt lat="44.44038" lon="6.1638">
        <ele>1084.9853516</ele>
        <time>2013-08-26T09:26:58Z</time>
      </trkpt>
      <trkpt lat="44.44027" lon="6.16375">
        <ele>1085.9465332</ele>
        <time>2013-08-26T09:27:07Z</time>
      </trkpt>
      <trkpt lat="44.44009" lon="6.16357">
        <ele>1088.3498535</ele>
        <time>2013-08-26T09:27:27Z</time>
      </trkpt>
      <trkpt lat="44.43988" lon="6.16328">
        <ele>1091.2336426</ele>
        <time>2013-08-26T09:27:54Z</time>
      </trkpt>
      <trkpt lat="44.4398" lon="6.16312">
        <ele>1092.6757813</ele>
        <time>2013-08-26T09:28:06Z</time>
      </trkpt>
      <trkpt lat="44.43962" lon="6.16283">
        <ele>1095.5595703</ele>
        <time>2013-08-26T09:28:30Z</time>
      </trkpt>
      <trkpt lat="44.43948" lon="6.16264">
        <ele>1097.0014648</ele>
        <time>2013-08-26T09:28:46Z</time>
      </trkpt>
      <trkpt lat="44.43935" lon="6.16232">
        <ele>1100.3664551</ele>
        <time>2013-08-26T09:29:10Z</time>
      </trkpt>
      <trkpt lat="44.43915" lon="6.16202">
        <ele>1102.7695313</ele>
        <time>2013-08-26T09:29:36Z</time>
      </trkpt>
      <trkpt lat="44.43898" lon="6.16177">
        <ele>1105.1728516</ele>
        <time>2013-08-26T09:29:57Z</time>
      </trkpt>
      <trkpt lat="44.4388" lon="6.16141">
        <ele>1107.5761719</ele>
        <time>2013-08-26T09:30:22Z</time>
      </trkpt>
      <trkpt lat="44.43864" lon="6.16106">
        <ele>1109.979248</ele>
        <time>2013-08-26T09:30:46Z</time>
      </trkpt>
      <trkpt lat="44.43857" lon="6.16072">
        <ele>1112.8632813</ele>
        <time>2013-08-26T09:31:08Z</time>
      </trkpt>
      <trkpt lat="44.43847" lon="6.16033">
        <ele>1115.2666016</ele>
        <time>2013-08-26T09:31:32Z</time>
      </trkpt>
      <trkpt lat="44.43846" lon="6.1603">
        <ele>1115.7473145</ele>
        <time>2013-08-26T09:31:34Z</time>
      </trkpt>
      <trkpt lat="44.4385" lon="6.16022">
        <ele>1116.7087402</ele>
        <time>2013-08-26T09:31:42Z</time>
      </trkpt>
      <trkpt lat="44.43853" lon="6.16016">
        <ele>1116.7087402</ele>
        <time>2013-08-26T09:31:47Z</time>
      </trkpt>
      <trkpt lat="44.43848" lon="6.16008">
        <ele>1115.7473145</ele>
        <time>2013-08-26T09:32:04Z</time>
      </trkpt>
      <trkpt lat="44.43849" lon="6.16012">
        <ele>1115.7473145</ele>
        <time>2013-08-26T09:34:19Z</time>
      </trkpt>
      <trkpt lat="44.43858" lon="6.16048">
        <ele>1118.1506348</ele>
        <time>2013-08-26T09:34:40Z</time>
      </trkpt>
      <trkpt lat="44.4386" lon="6.16059">
        <ele>1119.1120605</ele>
        <time>2013-08-26T09:34:46Z</time>
      </trkpt>
      <trkpt lat="44.43867" lon="6.16072">
        <ele>1119.5927734</ele>
        <time>2013-08-26T09:34:56Z</time>
      </trkpt>
      <trkpt lat="44.43879" lon="6.16087">
        <ele>1120.5539551</ele>
        <time>2013-08-26T09:35:10Z</time>
      </trkpt>
      <trkpt lat="44.4388" lon="6.16094">
        <ele>1121.5151367</ele>
        <time>2013-08-26T09:35:15Z</time>
      </trkpt>
      <trkpt lat="44.43895" lon="6.1612">
        <ele>1125.3603516</ele>
        <time>2013-08-26T09:35:37Z</time>
      </trkpt>
      <trkpt lat="44.43917" lon="6.16146">
        <ele>1127.7636719</ele>
        <time>2013-08-26T09:36:01Z</time>
      </trkpt>
      <trkpt lat="44.43941" lon="6.16171">
        <ele>1130.1669922</ele>
        <time>2013-08-26T09:36:24Z</time>
      </trkpt>
      <trkpt lat="44.43967" lon="6.16202">
        <ele>1132.0898438</ele>
        <time>2013-08-26T09:36:51Z</time>
      </trkpt>
      <trkpt lat="44.43978" lon="6.16216">
        <ele>1133.0510254</ele>
        <time>2013-08-26T09:37:03Z</time>
      </trkpt>
      <trkpt lat="44.44005" lon="6.16245">
        <ele>1135.9350586</ele>
        <time>2013-08-26T09:37:29Z</time>
      </trkpt>
      <trkpt lat="44.44028" lon="6.16247">
        <ele>1137.3769531</ele>
        <time>2013-08-26T09:37:47Z</time>
      </trkpt>
      <trkpt lat="44.4405" lon="6.16258">
        <ele>1139.7802734</ele>
        <time>2013-08-26T09:38:05Z</time>
      </trkpt>
      <trkpt lat="44.44054" lon="6.16261">
        <ele>1140.2609863</ele>
        <time>2013-08-26T09:38:09Z</time>
      </trkpt>
      <trkpt lat="44.44096" lon="6.16278">
        <ele>1142.6643066</ele>
        <time>2013-08-26T09:38:42Z</time>
      </trkpt>
      <trkpt lat="44.44128" lon="6.16302">
        <ele>1144.5866699</ele>
        <time>2013-08-26T09:39:09Z</time>
      </trkpt>
      <trkpt lat="44.44155" lon="6.16312">
        <ele>1146.5095215</ele>
        <time>2013-08-26T09:39:30Z</time>
      </trkpt>
      <trkpt lat="44.4418" lon="6.16318">
        <ele>1148.9128418</ele>
        <time>2013-08-26T09:39:51Z</time>
      </trkpt>
      <trkpt lat="44.44208" lon="6.16319">
        <ele>1149.8742676</ele>
        <time>2013-08-26T09:40:13Z</time>
      </trkpt>
      <trkpt lat="44.44224" lon="6.16299">
        <ele>1151.796875</ele>
        <time>2013-08-26T09:40:31Z</time>
      </trkpt>
      <trkpt lat="44.44254" lon="6.16275">
        <ele>1152.2773438</ele>
        <time>2013-08-26T09:40:55Z</time>
      </trkpt>
      <trkpt lat="44.44286" lon="6.16285">
        <ele>1153.2387695</ele>
        <time>2013-08-26T09:41:13Z</time>
      </trkpt>
      <trkpt lat="44.44313" lon="6.16309">
        <ele>1152.7580566</ele>
        <time>2013-08-26T09:41:31Z</time>
      </trkpt>
      <trkpt lat="44.44314" lon="6.16309">
        <ele>1152.7580566</ele>
        <time>2013-08-26T09:41:57Z</time>
      </trkpt>
      <trkpt lat="44.44314" lon="6.16309">
        <ele>1152.7580566</ele>
        <time>2013-08-26T09:42:08Z</time>
      </trkpt>
      <trkpt lat="44.44341" lon="6.16321">
        <ele>1154.2001953</ele>
        <time>2013-08-26T09:42:27Z</time>
      </trkpt>
      <trkpt lat="44.44364" lon="6.16313">
        <ele>1156.1225586</ele>
        <time>2013-08-26T09:42:49Z</time>
      </trkpt>
      <trkpt lat="44.444" lon="6.16304">
        <ele>1159.4873047</ele>
        <time>2013-08-26T09:43:18Z</time>
      </trkpt>
      <trkpt lat="44.44404" lon="6.16304">
        <ele>1159.4873047</ele>
        <time>2013-08-26T09:43:22Z</time>
      </trkpt>
      <trkpt lat="44.44408" lon="6.163">
        <ele>1159.9677734</ele>
        <time>2013-08-26T09:43:26Z</time>
      </trkpt>
      <trkpt lat="44.44414" lon="6.16292">
        <ele>1160.9291992</ele>
        <time>2013-08-26T09:43:32Z</time>
      </trkpt>
      <trkpt lat="44.44429" lon="6.16271">
        <ele>1163.8129883</ele>
        <time>2013-08-26T09:43:53Z</time>
      </trkpt>
      <trkpt lat="44.4443" lon="6.16269">
        <ele>1164.2939453</ele>
        <time>2013-08-26T09:43:55Z</time>
      </trkpt>
      <trkpt lat="44.44448" lon="6.16252">
        <ele>1166.2165527</ele>
        <time>2013-08-26T09:44:16Z</time>
      </trkpt>
      <trkpt lat="44.44466" lon="6.16234">
        <ele>1168.619873</ele>
        <time>2013-08-26T09:44:38Z</time>
      </trkpt>
      <trkpt lat="44.44466" lon="6.16233">
        <ele>1169.1005859</ele>
        <time>2013-08-26T09:44:39Z</time>
      </trkpt>
      <trkpt lat="44.44474" lon="6.16223">
        <ele>1170.5424805</ele>
        <time>2013-08-26T09:44:48Z</time>
      </trkpt>
      <trkpt lat="44.4449" lon="6.16195">
        <ele>1173.9069824</ele>
        <time>2013-08-26T09:45:09Z</time>
      </trkpt>
      <trkpt lat="44.44498" lon="6.1619">
        <ele>1174.3876953</ele>
        <time>2013-08-26T09:45:18Z</time>
      </trkpt>
      <trkpt lat="44.44501" lon="6.16185">
        <ele>1175.348877</ele>
        <time>2013-08-26T09:45:22Z</time>
      </trkpt>
      <trkpt lat="44.44506" lon="6.16173">
        <ele>1176.3103027</ele>
        <time>2013-08-26T09:45:31Z</time>
      </trkpt>
      <trkpt lat="44.44509" lon="6.16155">
        <ele>1177.7521973</ele>
        <time>2013-08-26T09:45:42Z</time>
      </trkpt>
      <trkpt lat="44.44509" lon="6.16149">
        <ele>1178.713623</ele>
        <time>2013-08-26T09:45:46Z</time>
      </trkpt>
      <trkpt lat="44.4451" lon="6.16146">
        <ele>1178.2329102</ele>
        <time>2013-08-26T09:45:48Z</time>
      </trkpt>
      <trkpt lat="44.44512" lon="6.16131">
        <ele>1178.713623</ele>
        <time>2013-08-26T09:45:56Z</time>
      </trkpt>
      <trkpt lat="44.44531" lon="6.16117">
        <ele>1180.6364746</ele>
        <time>2013-08-26T09:46:16Z</time>
      </trkpt>
      <trkpt lat="44.44551" lon="6.16103">
        <ele>1182.0783691</ele>
        <time>2013-08-26T09:46:33Z</time>
      </trkpt>
      <trkpt lat="44.44555" lon="6.16098">
        <ele>1183.0395508</ele>
        <time>2013-08-26T09:46:37Z</time>
      </trkpt>
      <trkpt lat="44.4456" lon="6.16096">
        <ele>1182.559082</ele>
        <time>2013-08-26T09:46:41Z</time>
      </trkpt>
      <trkpt lat="44.44584" lon="6.16107">
        <ele>1184.9624023</ele>
        <time>2013-08-26T09:47:01Z</time>
      </trkpt>
      <trkpt lat="44.44609" lon="6.16096">
        <ele>1187.3654785</ele>
        <time>2013-08-26T09:47:21Z</time>
      </trkpt>
      <trkpt lat="44.44617" lon="6.16087">
        <ele>1188.8076172</ele>
        <time>2013-08-26T09:47:30Z</time>
      </trkpt>
      <trkpt lat="44.44636" lon="6.16072">
        <ele>1190.2495117</ele>
        <time>2013-08-26T09:47:50Z</time>
      </trkpt>
      <trkpt lat="44.44659" lon="6.16077">
        <ele>1191.6914063</ele>
        <time>2013-08-26T09:48:09Z</time>
      </trkpt>
      <trkpt lat="44.44681" lon="6.16084">
        <ele>1194.0947266</ele>
        <time>2013-08-26T09:48:29Z</time>
      </trkpt>
      <trkpt lat="44.44709" lon="6.16074">
        <ele>1196.9787598</ele>
        <time>2013-08-26T09:48:50Z</time>
      </trkpt>
      <trkpt lat="44.44731" lon="6.1604">
        <ele>1199.3820801</ele>
        <time>2013-08-26T09:49:15Z</time>
      </trkpt>
      <trkpt lat="44.44731" lon="6.16036">
        <ele>1199.3820801</ele>
        <time>2013-08-26T09:49:37Z</time>
      </trkpt>
      <trkpt lat="44.44728" lon="6.16028">
        <ele>1200.8239746</ele>
        <time>2013-08-26T09:49:55Z</time>
      </trkpt>
      <trkpt lat="44.44735" lon="6.16034">
        <ele>1199.862793</ele>
        <time>2013-08-26T09:51:40Z</time>
      </trkpt>
      <trkpt lat="44.44735" lon="6.16034">
        <ele>1199.862793</ele>
        <time>2013-08-26T09:51:47Z</time>
      </trkpt>
      <trkpt lat="44.44744" lon="6.16047">
        <ele>1199.3820801</ele>
        <time>2013-08-26T09:51:53Z</time>
      </trkpt>
      <trkpt lat="44.44768" lon="6.16076">
        <ele>1198.4206543</ele>
        <time>2013-08-26T09:52:05Z</time>
      </trkpt>
      <trkpt lat="44.44767" lon="6.16075">
        <ele>1198.4206543</ele>
        <time>2013-08-26T09:54:09Z</time>
      </trkpt>
      <trkpt lat="44.44743" lon="6.16048">
        <ele>1198.9013672</ele>
        <time>2013-08-26T09:54:28Z</time>
      </trkpt>
      <trkpt lat="44.44736" lon="6.16042">
        <ele>1199.3820801</ele>
        <time>2013-08-26T09:54:34Z</time>
      </trkpt>
      <trkpt lat="44.44732" lon="6.1601">
        <ele>1201.7854004</ele>
        <time>2013-08-26T09:54:55Z</time>
      </trkpt>
      <trkpt lat="44.44729" lon="6.15976">
        <ele>1204.1887207</ele>
        <time>2013-08-26T09:55:16Z</time>
      </trkpt>
      <trkpt lat="44.44721" lon="6.15938">
        <ele>1207.5532227</ele>
        <time>2013-08-26T09:55:39Z</time>
      </trkpt>
      <trkpt lat="44.44713" lon="6.15895">
        <ele>1210.4370117</ele>
        <time>2013-08-26T09:56:07Z</time>
      </trkpt>
      <trkpt lat="44.44705" lon="6.15868">
        <ele>1212.3598633</ele>
        <time>2013-08-26T09:56:24Z</time>
      </trkpt>
      <trkpt lat="44.44692" lon="6.15833">
        <ele>1215.2438965</ele>
        <time>2013-08-26T09:56:49Z</time>
      </trkpt>
      <trkpt lat="44.44687" lon="6.15818">
        <ele>1216.2050781</ele>
        <time>2013-08-26T09:56:59Z</time>
      </trkpt>
      <trkpt lat="44.4467" lon="6.15789">
        <ele>1218.1276855</ele>
        <time>2013-08-26T09:57:21Z</time>
      </trkpt>
      <trkpt lat="44.44661" lon="6.15772">
        <ele>1220.050293</ele>
        <time>2013-08-26T09:57:32Z</time>
      </trkpt>
      <trkpt lat="44.44643" lon="6.15758">
        <ele>1221.9729004</ele>
        <time>2013-08-26T09:57:50Z</time>
      </trkpt>
      <trkpt lat="44.44636" lon="6.15748">
        <ele>1223.4150391</ele>
        <time>2013-08-26T09:57:59Z</time>
      </trkpt>
      <trkpt lat="44.44634" lon="6.15743">
        <ele>1223.4150391</ele>
        <time>2013-08-26T09:58:02Z</time>
      </trkpt>
      <trkpt lat="44.44622" lon="6.1573">
        <ele>1224.8569336</ele>
        <time>2013-08-26T09:58:16Z</time>
      </trkpt>
      <trkpt lat="44.44606" lon="6.1571">
        <ele>1227.2602539</ele>
        <time>2013-08-26T09:58:36Z</time>
      </trkpt>
      <trkpt lat="44.44587" lon="6.15692">
        <ele>1229.1828613</ele>
        <time>2013-08-26T09:58:57Z</time>
      </trkpt>
      <trkpt lat="44.44575" lon="6.15677">
        <ele>1230.625</ele>
        <time>2013-08-26T09:59:09Z</time>
      </trkpt>
      <trkpt lat="44.44559" lon="6.15661">
        <ele>1231.5861816</ele>
        <time>2013-08-26T09:59:24Z</time>
      </trkpt>
      <trkpt lat="44.44551" lon="6.15634">
        <ele>1233.989502</ele>
        <time>2013-08-26T09:59:41Z</time>
      </trkpt>
      <trkpt lat="44.44538" lon="6.15606">
        <ele>1235.4313965</ele>
        <time>2013-08-26T10:00:01Z</time>
      </trkpt>
      <trkpt lat="44.44523" lon="6.15578">
        <ele>1237.3540039</ele>
        <time>2013-08-26T10:00:21Z</time>
      </trkpt>
      <trkpt lat="44.44506" lon="6.15548">
        <ele>1239.2766113</ele>
        <time>2013-08-26T10:00:42Z</time>
      </trkpt>
      <trkpt lat="44.44489" lon="6.15527">
        <ele>1240.2380371</ele>
        <time>2013-08-26T10:00:59Z</time>
      </trkpt>
      <trkpt lat="44.44472" lon="6.15505">
        <ele>1242.1606445</ele>
        <time>2013-08-26T10:01:18Z</time>
      </trkpt>
      <trkpt lat="44.44466" lon="6.15501">
        <ele>1242.6413574</ele>
        <time>2013-08-26T10:01:24Z</time>
      </trkpt>
      <trkpt lat="44.44449" lon="6.15475">
        <ele>1244.5639648</ele>
        <time>2013-08-26T10:01:45Z</time>
      </trkpt>
      <trkpt lat="44.4443" lon="6.15457">
        <ele>1243.1218262</ele>
        <time>2013-08-26T10:02:00Z</time>
      </trkpt>
      <trkpt lat="44.44429" lon="6.15457">
        <ele>1243.6025391</ele>
        <time>2013-08-26T10:02:12Z</time>
      </trkpt>
      <trkpt lat="44.44445" lon="6.15416">
        <ele>1240.7185059</ele>
        <time>2013-08-26T10:02:26Z</time>
      </trkpt>
      <trkpt lat="44.44456" lon="6.15381">
        <ele>1237.3540039</ele>
        <time>2013-08-26T10:02:38Z</time>
      </trkpt>
      <trkpt lat="44.44458" lon="6.15343">
        <ele>1234.4702148</ele>
        <time>2013-08-26T10:02:52Z</time>
      </trkpt>
      <trkpt lat="44.44455" lon="6.15327">
        <ele>1232.5476074</ele>
        <time>2013-08-26T10:02:58Z</time>
      </trkpt>
      <trkpt lat="44.44464" lon="6.15283">
        <ele>1230.1442871</ele>
        <time>2013-08-26T10:03:11Z</time>
      </trkpt>
      <trkpt lat="44.44466" lon="6.1528">
        <ele>1229.6635742</ele>
        <time>2013-08-26T10:03:14Z</time>
      </trkpt>
      <trkpt lat="44.44465" lon="6.15272">
        <ele>1228.7023926</ele>
        <time>2013-08-26T10:03:18Z</time>
      </trkpt>
      <trkpt lat="44.44467" lon="6.15242">
        <ele>1226.2988281</ele>
        <time>2013-08-26T10:03:27Z</time>
      </trkpt>
      <trkpt lat="44.44467" lon="6.15239">
        <ele>1226.2988281</ele>
        <time>2013-08-26T10:03:28Z</time>
      </trkpt>
      <trkpt lat="44.44474" lon="6.15192">
        <ele>1222.9343262</ele>
        <time>2013-08-26T10:03:40Z</time>
      </trkpt>
      <trkpt lat="44.44476" lon="6.15187">
        <ele>1222.4536133</ele>
        <time>2013-08-26T10:03:54Z</time>
      </trkpt>
      <trkpt lat="44.44476" lon="6.15186">
        <ele>1222.4536133</ele>
        <time>2013-08-26T10:06:26Z</time>
      </trkpt>
      <trkpt lat="44.44469" lon="6.15182">
        <ele>1222.4536133</ele>
        <time>2013-08-26T10:06:31Z</time>
      </trkpt>
      <trkpt lat="44.44463" lon="6.15172">
        <ele>1222.9343262</ele>
        <time>2013-08-26T10:06:37Z</time>
      </trkpt>
      <trkpt lat="44.44461" lon="6.15134">
        <ele>1224.8569336</ele>
        <time>2013-08-26T10:06:59Z</time>
      </trkpt>
      <trkpt lat="44.44451" lon="6.15099">
        <ele>1228.2216797</ele>
        <time>2013-08-26T10:07:22Z</time>
      </trkpt>
      <trkpt lat="44.44442" lon="6.15071">
        <ele>1230.1442871</ele>
        <time>2013-08-26T10:07:41Z</time>
      </trkpt>
      <trkpt lat="44.44442" lon="6.1507">
        <ele>1230.1442871</ele>
        <time>2013-08-26T10:07:42Z</time>
      </trkpt>
      <trkpt lat="44.44443" lon="6.15064">
        <ele>1230.625</ele>
        <time>2013-08-26T10:07:46Z</time>
      </trkpt>
      <trkpt lat="44.44446" lon="6.15058">
        <ele>1231.5861816</ele>
        <time>2013-08-26T10:07:52Z</time>
      </trkpt>
      <trkpt lat="44.44452" lon="6.15051">
        <ele>1233.0280762</ele>
        <time>2013-08-26T10:08:00Z</time>
      </trkpt>
      <trkpt lat="44.44454" lon="6.15043">
        <ele>1233.0280762</ele>
        <time>2013-08-26T10:08:05Z</time>
      </trkpt>
      <trkpt lat="44.44443" lon="6.15005">
        <ele>1236.3928223</ele>
        <time>2013-08-26T10:08:33Z</time>
      </trkpt>
      <trkpt lat="44.44442" lon="6.15005">
        <ele>1236.3928223</ele>
        <time>2013-08-26T10:08:34Z</time>
      </trkpt>
      <trkpt lat="44.44432" lon="6.14999">
        <ele>1237.8347168</ele>
        <time>2013-08-26T10:08:41Z</time>
      </trkpt>
      <trkpt lat="44.44426" lon="6.14989">
        <ele>1238.7961426</ele>
        <time>2013-08-26T10:08:51Z</time>
      </trkpt>
      <trkpt lat="44.44424" lon="6.14983">
        <ele>1239.2766113</ele>
        <time>2013-08-26T10:08:55Z</time>
      </trkpt>
      <trkpt lat="44.44422" lon="6.14981">
        <ele>1239.7573242</ele>
        <time>2013-08-26T10:08:58Z</time>
      </trkpt>
      <trkpt lat="44.4442" lon="6.14952">
        <ele>1242.1606445</ele>
        <time>2013-08-26T10:09:18Z</time>
      </trkpt>
      <trkpt lat="44.4442" lon="6.14947">
        <ele>1242.6413574</ele>
        <time>2013-08-26T10:09:22Z</time>
      </trkpt>
      <trkpt lat="44.44422" lon="6.1492">
        <ele>1245.0446777</ele>
        <time>2013-08-26T10:09:43Z</time>
      </trkpt>
      <trkpt lat="44.44414" lon="6.14902">
        <ele>1246.0061035</ele>
        <time>2013-08-26T10:09:56Z</time>
      </trkpt>
      <trkpt lat="44.44413" lon="6.14884">
        <ele>1247.9287109</ele>
        <time>2013-08-26T10:10:16Z</time>
      </trkpt>
      <trkpt lat="44.44415" lon="6.14881">
        <ele>1249.3706055</ele>
        <time>2013-08-26T10:11:21Z</time>
      </trkpt>
      <trkpt lat="44.44414" lon="6.14875">
        <ele>1249.8513184</ele>
        <time>2013-08-26T10:11:43Z</time>
      </trkpt>
      <trkpt lat="44.44413" lon="6.14875">
        <ele>1249.8513184</ele>
        <time>2013-08-26T10:12:08Z</time>
      </trkpt>
      <trkpt lat="44.4441" lon="6.14856">
        <ele>1250.8125</ele>
        <time>2013-08-26T10:12:18Z</time>
      </trkpt>
      <trkpt lat="44.44411" lon="6.14849">
        <ele>1251.2932129</ele>
        <time>2013-08-26T10:12:22Z</time>
      </trkpt>
      <trkpt lat="44.44412" lon="6.14841">
        <ele>1251.7739258</ele>
        <time>2013-08-26T10:12:27Z</time>
      </trkpt>
      <trkpt lat="44.44421" lon="6.14817">
        <ele>1253.6965332</ele>
        <time>2013-08-26T10:12:45Z</time>
      </trkpt>
      <trkpt lat="44.44422" lon="6.14812">
        <ele>1254.6577148</ele>
        <time>2013-08-26T10:12:49Z</time>
      </trkpt>
      <trkpt lat="44.44424" lon="6.14806">
        <ele>1255.1384277</ele>
        <time>2013-08-26T10:12:53Z</time>
      </trkpt>
      <trkpt lat="44.44437" lon="6.14776">
        <ele>1258.0224609</ele>
        <time>2013-08-26T10:13:15Z</time>
      </trkpt>
      <trkpt lat="44.44443" lon="6.14763">
        <ele>1259.4643555</ele>
        <time>2013-08-26T10:13:26Z</time>
      </trkpt>
      <trkpt lat="44.44455" lon="6.14759">
        <ele>1260.9064941</ele>
        <time>2013-08-26T10:13:40Z</time>
      </trkpt>
      <trkpt lat="44.4446" lon="6.14764">
        <ele>1261.387207</ele>
        <time>2013-08-26T10:13:46Z</time>
      </trkpt>
      <trkpt lat="44.44465" lon="6.14774">
        <ele>1262.3483887</ele>
        <time>2013-08-26T10:13:55Z</time>
      </trkpt>
      <trkpt lat="44.4447" lon="6.1479">
        <ele>1263.3098145</ele>
        <time>2013-08-26T10:14:07Z</time>
      </trkpt>
      <trkpt lat="44.44492" lon="6.14797">
        <ele>1265.7131348</ele>
        <time>2013-08-26T10:14:29Z</time>
      </trkpt>
      <trkpt lat="44.44503" lon="6.14789">
        <ele>1268.1162109</ele>
        <time>2013-08-26T10:14:47Z</time>
      </trkpt>
      <trkpt lat="44.44523" lon="6.14797">
        <ele>1270.5195313</ele>
        <time>2013-08-26T10:15:10Z</time>
      </trkpt>
      <trkpt lat="44.44525" lon="6.14796">
        <ele>1270.5195313</ele>
        <time>2013-08-26T10:15:12Z</time>
      </trkpt>
      <trkpt lat="44.44543" lon="6.14805">
        <ele>1272.4421387</ele>
        <time>2013-08-26T10:15:27Z</time>
      </trkpt>
      <trkpt lat="44.44546" lon="6.14808">
        <ele>1272.9228516</ele>
        <time>2013-08-26T10:15:30Z</time>
      </trkpt>
      <trkpt lat="44.4455" lon="6.14812">
        <ele>1273.4035645</ele>
        <time>2013-08-26T10:15:34Z</time>
      </trkpt>
      <trkpt lat="44.44577" lon="6.14825">
        <ele>1275.8066406</ele>
        <time>2013-08-26T10:15:53Z</time>
      </trkpt>
      <trkpt lat="44.44595" lon="6.14829">
        <ele>1278.2102051</ele>
        <time>2013-08-26T10:16:10Z</time>
      </trkpt>
      <trkpt lat="44.44602" lon="6.14828">
        <ele>1279.1713867</ele>
        <time>2013-08-26T10:16:17Z</time>
      </trkpt>
      <trkpt lat="44.44627" lon="6.14829">
        <ele>1281.574707</ele>
        <time>2013-08-26T10:16:41Z</time>
      </trkpt>
      <trkpt lat="44.44645" lon="6.14831">
        <ele>1283.9780273</ele>
        <time>2013-08-26T10:16:59Z</time>
      </trkpt>
      <trkpt lat="44.44657" lon="6.14841">
        <ele>1286.3813477</ele>
        <time>2013-08-26T10:17:11Z</time>
      </trkpt>
      <trkpt lat="44.44673" lon="6.1485">
        <ele>1287.3425293</ele>
        <time>2013-08-26T10:17:26Z</time>
      </trkpt>
      <trkpt lat="44.44686" lon="6.14859">
        <ele>1288.784668</ele>
        <time>2013-08-26T10:17:38Z</time>
      </trkpt>
      <trkpt lat="44.44703" lon="6.14876">
        <ele>1290.7070313</ele>
        <time>2013-08-26T10:17:59Z</time>
      </trkpt>
      <trkpt lat="44.44717" lon="6.14892">
        <ele>1292.1494141</ele>
        <time>2013-08-26T10:18:15Z</time>
      </trkpt>
      <trkpt lat="44.44735" lon="6.14925">
        <ele>1295.0332031</ele>
        <time>2013-08-26T10:18:43Z</time>
      </trkpt>
      <trkpt lat="44.44753" lon="6.14938">
        <ele>1297.4365234</ele>
        <time>2013-08-26T10:19:04Z</time>
      </trkpt>
      <trkpt lat="44.44774" lon="6.14943">
        <ele>1299.8398438</ele>
        <time>2013-08-26T10:19:24Z</time>
      </trkpt>
      <trkpt lat="44.44777" lon="6.14942">
        <ele>1300.3205566</ele>
        <time>2013-08-26T10:19:28Z</time>
      </trkpt>
      <trkpt lat="44.44796" lon="6.14937">
        <ele>1301.7624512</ele>
        <time>2013-08-26T10:19:46Z</time>
      </trkpt>
      <trkpt lat="44.44801" lon="6.1493">
        <ele>1303.2043457</ele>
        <time>2013-08-26T10:19:53Z</time>
      </trkpt>
      <trkpt lat="44.44801" lon="6.14904">
        <ele>1304.6462402</ele>
        <time>2013-08-26T10:20:09Z</time>
      </trkpt>
      <trkpt lat="44.44802" lon="6.14898">
        <ele>1305.607666</ele>
        <time>2013-08-26T10:20:24Z</time>
      </trkpt>
      <trkpt lat="44.44802" lon="6.14897">
        <ele>1306.5688477</ele>
        <time>2013-08-26T10:20:40Z</time>
      </trkpt>
      <trkpt lat="44.44799" lon="6.14886">
        <ele>1306.0881348</ele>
        <time>2013-08-26T10:20:59Z</time>
      </trkpt>
      <trkpt lat="44.44799" lon="6.14886">
        <ele>1307.0495605</ele>
        <time>2013-08-26T10:21:20Z</time>
      </trkpt>
      <trkpt lat="44.44794" lon="6.14875">
        <ele>1307.0495605</ele>
        <time>2013-08-26T10:21:38Z</time>
      </trkpt>
      <trkpt lat="44.44788" lon="6.14857">
        <ele>1308.9724121</ele>
        <time>2013-08-26T10:22:07Z</time>
      </trkpt>
      <trkpt lat="44.44788" lon="6.14853">
        <ele>1309.453125</ele>
        <time>2013-08-26T10:23:18Z</time>
      </trkpt>
      <trkpt lat="44.44787" lon="6.14853">
        <ele>1309.453125</ele>
        <time>2013-08-26T10:23:42Z</time>
      </trkpt>
      <trkpt lat="44.44775" lon="6.14826">
        <ele>1310.8950195</ele>
        <time>2013-08-26T10:24:00Z</time>
      </trkpt>
      <trkpt lat="44.44767" lon="6.14808">
        <ele>1312.817627</ele>
        <time>2013-08-26T10:24:12Z</time>
      </trkpt>
      <trkpt lat="44.44759" lon="6.148">
        <ele>1313.7788086</ele>
        <time>2013-08-26T10:24:19Z</time>
      </trkpt>
      <trkpt lat="44.44753" lon="6.14796">
        <ele>1314.2595215</ele>
        <time>2013-08-26T10:24:25Z</time>
      </trkpt>
      <trkpt lat="44.44747" lon="6.1479">
        <ele>1314.7402344</ele>
        <time>2013-08-26T10:24:31Z</time>
      </trkpt>
      <trkpt lat="44.44741" lon="6.14788">
        <ele>1315.7016602</ele>
        <time>2013-08-26T10:24:36Z</time>
      </trkpt>
      <trkpt lat="44.44738" lon="6.14785">
        <ele>1315.7016602</ele>
        <time>2013-08-26T10:24:40Z</time>
      </trkpt>
      <trkpt lat="44.4472" lon="6.14779">
        <ele>1317.6240234</ele>
        <time>2013-08-26T10:24:54Z</time>
      </trkpt>
      <trkpt lat="44.44703" lon="6.14777">
        <ele>1319.546875</ele>
        <time>2013-08-26T10:25:09Z</time>
      </trkpt>
      <trkpt lat="44.44697" lon="6.14777">
        <ele>1320.0273438</ele>
        <time>2013-08-26T10:25:14Z</time>
      </trkpt>
      <trkpt lat="44.44676" lon="6.14775">
        <ele>1321.9499512</ele>
        <time>2013-08-26T10:25:32Z</time>
      </trkpt>
      <trkpt lat="44.44653" lon="6.14754">
        <ele>1325.3146973</ele>
        <time>2013-08-26T10:25:59Z</time>
      </trkpt>
      <trkpt lat="44.44628" lon="6.14741">
        <ele>1327.7180176</ele>
        <time>2013-08-26T10:26:23Z</time>
      </trkpt>
      <trkpt lat="44.44607" lon="6.14728">
        <ele>1331.0827637</ele>
        <time>2013-08-26T10:26:50Z</time>
      </trkpt>
      <trkpt lat="44.44598" lon="6.14716">
        <ele>1332.5246582</ele>
        <time>2013-08-26T10:27:02Z</time>
      </trkpt>
      <trkpt lat="44.44579" lon="6.14688">
        <ele>1335.4084473</ele>
        <time>2013-08-26T10:27:28Z</time>
      </trkpt>
      <trkpt lat="44.44556" lon="6.14663">
        <ele>1338.7731934</ele>
        <time>2013-08-26T10:27:55Z</time>
      </trkpt>
      <trkpt lat="44.44549" lon="6.14638">
        <ele>1340.6958008</ele>
        <time>2013-08-26T10:28:13Z</time>
      </trkpt>
      <trkpt lat="44.44547" lon="6.14633">
        <ele>1341.1765137</ele>
        <time>2013-08-26T10:28:17Z</time>
      </trkpt>
      <trkpt lat="44.44539" lon="6.14607">
        <ele>1343.0991211</ele>
        <time>2013-08-26T10:28:36Z</time>
      </trkpt>
      <trkpt lat="44.44538" lon="6.14604">
        <ele>1343.0991211</ele>
        <time>2013-08-26T10:28:38Z</time>
      </trkpt>
      <trkpt lat="44.44529" lon="6.14583">
        <ele>1344.5410156</ele>
        <time>2013-08-26T10:28:54Z</time>
      </trkpt>
      <trkpt lat="44.44526" lon="6.14579">
        <ele>1345.0217285</ele>
        <time>2013-08-26T10:28:58Z</time>
      </trkpt>
      <trkpt lat="44.44525" lon="6.14574">
        <ele>1345.5024414</ele>
        <time>2013-08-26T10:29:02Z</time>
      </trkpt>
      <trkpt lat="44.44518" lon="6.14556">
        <ele>1346.4638672</ele>
        <time>2013-08-26T10:29:14Z</time>
      </trkpt>
      <trkpt lat="44.445" lon="6.14531">
        <ele>1349.8283691</ele>
        <time>2013-08-26T10:29:37Z</time>
      </trkpt>
      <trkpt lat="44.44481" lon="6.14514">
        <ele>1351.7509766</ele>
        <time>2013-08-26T10:29:54Z</time>
      </trkpt>
      <trkpt lat="44.4448" lon="6.14513">
        <ele>1351.7509766</ele>
        <time>2013-08-26T10:29:55Z</time>
      </trkpt>
      <trkpt lat="44.44475" lon="6.14511">
        <ele>1352.2314453</ele>
        <time>2013-08-26T10:29:59Z</time>
      </trkpt>
      <trkpt lat="44.44462" lon="6.14513">
        <ele>1353.1928711</ele>
        <time>2013-08-26T10:30:09Z</time>
      </trkpt>
      <trkpt lat="44.4445" lon="6.14551">
        <ele>1352.7121582</ele>
        <time>2013-08-26T10:30:26Z</time>
      </trkpt>
      <trkpt lat="44.44417" lon="6.14586">
        <ele>1353.673584</ele>
        <time>2013-08-26T10:30:43Z</time>
      </trkpt>
      <trkpt lat="44.44393" lon="6.14601">
        <ele>1353.673584</ele>
        <time>2013-08-26T10:30:54Z</time>
      </trkpt>
      <trkpt lat="44.44372" lon="6.14618">
        <ele>1354.1542969</ele>
        <time>2013-08-26T10:31:04Z</time>
      </trkpt>
      <trkpt lat="44.44342" lon="6.14656">
        <ele>1353.673584</ele>
        <time>2013-08-26T10:31:21Z</time>
      </trkpt>
      <trkpt lat="44.4431" lon="6.14685">
        <ele>1353.673584</ele>
        <time>2013-08-26T10:31:36Z</time>
      </trkpt>
      <trkpt lat="44.44292" lon="6.14706">
        <ele>1353.673584</ele>
        <time>2013-08-26T10:31:46Z</time>
      </trkpt>
      <trkpt lat="44.44269" lon="6.14744">
        <ele>1354.1542969</ele>
        <time>2013-08-26T10:31:59Z</time>
      </trkpt>
      <trkpt lat="44.44254" lon="6.14791">
        <ele>1354.1542969</ele>
        <time>2013-08-26T10:32:12Z</time>
      </trkpt>
      <trkpt lat="44.4424" lon="6.14834">
        <ele>1354.1542969</ele>
        <time>2013-08-26T10:32:21Z</time>
      </trkpt>
      <trkpt lat="44.44239" lon="6.14843">
        <ele>1354.1542969</ele>
        <time>2013-08-26T10:32:23Z</time>
      </trkpt>
      <trkpt lat="44.44236" lon="6.14853">
        <ele>1353.673584</ele>
        <time>2013-08-26T10:32:27Z</time>
      </trkpt>
      <trkpt lat="44.44234" lon="6.14854">
        <ele>1354.1542969</ele>
        <time>2013-08-26T10:32:39Z</time>
      </trkpt>
      <trkpt lat="44.44234" lon="6.14853">
        <ele>1353.673584</ele>
        <time>2013-08-26T10:33:25Z</time>
      </trkpt>
      <trkpt lat="44.44231" lon="6.14845">
        <ele>1354.1542969</ele>
        <time>2013-08-26T10:33:37Z</time>
      </trkpt>
      <trkpt lat="44.44228" lon="6.1484">
        <ele>1352.7121582</ele>
        <time>2013-08-26T10:33:51Z</time>
      </trkpt>
      <trkpt lat="44.44228" lon="6.14839">
        <ele>1353.1928711</ele>
        <time>2013-08-26T10:34:11Z</time>
      </trkpt>
      <trkpt lat="44.44227" lon="6.14837">
        <ele>1352.2314453</ele>
        <time>2013-08-26T10:34:31Z</time>
      </trkpt>
      <trkpt lat="44.44205" lon="6.14804">
        <ele>1350.7895508</ele>
        <time>2013-08-26T10:34:41Z</time>
      </trkpt>
      <trkpt lat="44.44197" lon="6.14789">
        <ele>1348.3862305</ele>
        <time>2013-08-26T10:34:46Z</time>
      </trkpt>
      <trkpt lat="44.44181" lon="6.1476">
        <ele>1345.9831543</ele>
        <time>2013-08-26T10:34:54Z</time>
      </trkpt>
      <trkpt lat="44.44159" lon="6.14723">
        <ele>1343.0991211</ele>
        <time>2013-08-26T10:35:07Z</time>
      </trkpt>
      <trkpt lat="44.44156" lon="6.14665">
        <ele>1339.734375</ele>
        <time>2013-08-26T10:35:20Z</time>
      </trkpt>
      <trkpt lat="44.44162" lon="6.14612">
        <ele>1337.8117676</ele>
        <time>2013-08-26T10:35:32Z</time>
      </trkpt>
      <trkpt lat="44.44159" lon="6.14572">
        <ele>1336.369873</ele>
        <time>2013-08-26T10:35:42Z</time>
      </trkpt>
      <trkpt lat="44.44136" lon="6.14555">
        <ele>1333.9665527</ele>
        <time>2013-08-26T10:35:52Z</time>
      </trkpt>
      <trkpt lat="44.44108" lon="6.14552">
        <ele>1331.0827637</ele>
        <time>2013-08-26T10:36:02Z</time>
      </trkpt>
      <trkpt lat="44.44088" lon="6.14514">
        <ele>1328.6794434</ele>
        <time>2013-08-26T10:36:13Z</time>
      </trkpt>
      <trkpt lat="44.44072" lon="6.14525">
        <ele>1327.2375488</ele>
        <time>2013-08-26T10:36:20Z</time>
      </trkpt>
      <trkpt lat="44.44042" lon="6.1455">
        <ele>1323.8725586</ele>
        <time>2013-08-26T10:36:35Z</time>
      </trkpt>
      <trkpt lat="44.44013" lon="6.14566">
        <ele>1321.9499512</ele>
        <time>2013-08-26T10:36:49Z</time>
      </trkpt>
      <trkpt lat="44.44009" lon="6.14569">
        <ele>1320.9887695</ele>
        <time>2013-08-26T10:36:51Z</time>
      </trkpt>
      <trkpt lat="44.43984" lon="6.14559">
        <ele>1318.5854492</ele>
        <time>2013-08-26T10:37:03Z</time>
      </trkpt>
      <trkpt lat="44.43966" lon="6.14511">
        <ele>1315.7016602</ele>
        <time>2013-08-26T10:37:17Z</time>
      </trkpt>
      <trkpt lat="44.43953" lon="6.14487">
        <ele>1313.7788086</ele>
        <time>2013-08-26T10:37:26Z</time>
      </trkpt>
      <trkpt lat="44.43952" lon="6.14454">
        <ele>1312.817627</ele>
        <time>2013-08-26T10:37:36Z</time>
      </trkpt>
      <trkpt lat="44.43924" lon="6.14456">
        <ele>1311.3757324</ele>
        <time>2013-08-26T10:37:48Z</time>
      </trkpt>
      <trkpt lat="44.43902" lon="6.14473">
        <ele>1309.453125</ele>
        <time>2013-08-26T10:37:59Z</time>
      </trkpt>
      <trkpt lat="44.43869" lon="6.14477">
        <ele>1306.5688477</ele>
        <time>2013-08-26T10:38:11Z</time>
      </trkpt>
      <trkpt lat="44.43822" lon="6.14485">
        <ele>1303.2043457</ele>
        <time>2013-08-26T10:38:25Z</time>
      </trkpt>
      <trkpt lat="44.438" lon="6.14482">
        <ele>1302.2429199</ele>
        <time>2013-08-26T10:38:38Z</time>
      </trkpt>
      <trkpt lat="44.43798" lon="6.14482">
        <ele>1302.7236328</ele>
        <time>2013-08-26T10:39:15Z</time>
      </trkpt>
      <trkpt lat="44.43793" lon="6.14479">
        <ele>1301.7624512</ele>
        <time>2013-08-26T10:39:38Z</time>
      </trkpt>
      <trkpt lat="44.43792" lon="6.14479">
        <ele>1302.7236328</ele>
        <time>2013-08-26T10:39:40Z</time>
      </trkpt>
      <trkpt lat="44.43788" lon="6.14473">
        <ele>1299.8398438</ele>
        <time>2013-08-26T10:40:13Z</time>
      </trkpt>
      <trkpt lat="44.4378" lon="6.14471">
        <ele>1298.878418</ele>
        <time>2013-08-26T10:40:31Z</time>
      </trkpt>
      <trkpt lat="44.43767" lon="6.14478">
        <ele>1295.0332031</ele>
        <time>2013-08-26T10:40:52Z</time>
      </trkpt>
      <trkpt lat="44.43758" lon="6.14481">
        <ele>1292.630127</ele>
        <time>2013-08-26T10:41:09Z</time>
      </trkpt>
      <trkpt lat="44.43757" lon="6.14482">
        <ele>1292.630127</ele>
        <time>2013-08-26T10:41:10Z</time>
      </trkpt>
      <trkpt lat="44.43747" lon="6.14491">
        <ele>1289.7458496</ele>
        <time>2013-08-26T10:41:21Z</time>
      </trkpt>
      <trkpt lat="44.43745" lon="6.14493">
        <ele>1289.2651367</ele>
        <time>2013-08-26T10:41:23Z</time>
      </trkpt>
      <trkpt lat="44.43726" lon="6.14506">
        <ele>1285.9006348</ele>
        <time>2013-08-26T10:41:36Z</time>
      </trkpt>
      <trkpt lat="44.43721" lon="6.14525">
        <ele>1283.9780273</ele>
        <time>2013-08-26T10:41:45Z</time>
      </trkpt>
      <trkpt lat="44.43716" lon="6.14545">
        <ele>1282.0554199</ele>
        <time>2013-08-26T10:41:52Z</time>
      </trkpt>
      <trkpt lat="44.43715" lon="6.14556">
        <ele>1280.6135254</ele>
        <time>2013-08-26T10:41:58Z</time>
      </trkpt>
      <trkpt lat="44.43697" lon="6.14585">
        <ele>1277.7294922</ele>
        <time>2013-08-26T10:42:12Z</time>
      </trkpt>
      <trkpt lat="44.43684" lon="6.14593">
        <ele>1277.2490234</ele>
        <time>2013-08-26T10:42:27Z</time>
      </trkpt>
      <trkpt lat="44.43679" lon="6.14596">
        <ele>1275.8066406</ele>
        <time>2013-08-26T10:42:50Z</time>
      </trkpt>
      <trkpt lat="44.43676" lon="6.146">
        <ele>1275.3259277</ele>
        <time>2013-08-26T10:43:09Z</time>
      </trkpt>
      <trkpt lat="44.43666" lon="6.14607">
        <ele>1274.3647461</ele>
        <time>2013-08-26T10:43:22Z</time>
      </trkpt>
      <trkpt lat="44.43646" lon="6.14634">
        <ele>1272.4421387</ele>
        <time>2013-08-26T10:43:38Z</time>
      </trkpt>
      <trkpt lat="44.43646" lon="6.14636">
        <ele>1272.9228516</ele>
        <time>2013-08-26T10:43:59Z</time>
      </trkpt>
      <trkpt lat="44.43639" lon="6.14646">
        <ele>1271.4807129</ele>
        <time>2013-08-26T10:44:22Z</time>
      </trkpt>
      <trkpt lat="44.43634" lon="6.14659">
        <ele>1269.0776367</ele>
        <time>2013-08-26T10:44:40Z</time>
      </trkpt>
      <trkpt lat="44.43627" lon="6.14671">
        <ele>1266.1936035</ele>
        <time>2013-08-26T10:44:58Z</time>
      </trkpt>
      <trkpt lat="44.43624" lon="6.14682">
        <ele>1263.7902832</ele>
        <time>2013-08-26T10:45:18Z</time>
      </trkpt>
      <trkpt lat="44.43624" lon="6.14695">
        <ele>1261.387207</ele>
        <time>2013-08-26T10:45:35Z</time>
      </trkpt>
      <trkpt lat="44.43623" lon="6.14696">
        <ele>1261.387207</ele>
        <time>2013-08-26T10:45:49Z</time>
      </trkpt>
      <trkpt lat="44.43614" lon="6.1473">
        <ele>1259.9448242</ele>
        <time>2013-08-26T10:46:01Z</time>
      </trkpt>
      <trkpt lat="44.43604" lon="6.14758">
        <ele>1256.5803223</ele>
        <time>2013-08-26T10:46:14Z</time>
      </trkpt>
      <trkpt lat="44.43597" lon="6.14773">
        <ele>1254.6577148</ele>
        <time>2013-08-26T10:46:31Z</time>
      </trkpt>
      <trkpt lat="44.43593" lon="6.14779">
        <ele>1253.2158203</ele>
        <time>2013-08-26T10:46:48Z</time>
      </trkpt>
      <trkpt lat="44.43584" lon="6.14789">
        <ele>1250.3320313</ele>
        <time>2013-08-26T10:46:59Z</time>
      </trkpt>
      <trkpt lat="44.43577" lon="6.14797">
        <ele>1248.8898926</ele>
        <time>2013-08-26T10:47:16Z</time>
      </trkpt>
      <trkpt lat="44.43567" lon="6.1481">
        <ele>1246.4868164</ele>
        <time>2013-08-26T10:47:30Z</time>
      </trkpt>
      <trkpt lat="44.43556" lon="6.14827">
        <ele>1243.6025391</ele>
        <time>2013-08-26T10:47:48Z</time>
      </trkpt>
      <trkpt lat="44.43551" lon="6.14843">
        <ele>1241.1992188</ele>
        <time>2013-08-26T10:48:02Z</time>
      </trkpt>
      <trkpt lat="44.43544" lon="6.14868">
        <ele>1238.3154297</ele>
        <time>2013-08-26T10:48:20Z</time>
      </trkpt>
      <trkpt lat="44.43535" lon="6.14906">
        <ele>1237.8347168</ele>
        <time>2013-08-26T10:48:32Z</time>
      </trkpt>
      <trkpt lat="44.43527" lon="6.14918">
        <ele>1236.873291</ele>
        <time>2013-08-26T10:48:37Z</time>
      </trkpt>
      <trkpt lat="44.4352" lon="6.14942">
        <ele>1236.873291</ele>
        <time>2013-08-26T10:48:47Z</time>
      </trkpt>
      <trkpt lat="44.43518" lon="6.14972">
        <ele>1237.3540039</ele>
        <time>2013-08-26T10:48:59Z</time>
      </trkpt>
      <trkpt lat="44.43513" lon="6.14982">
        <ele>1238.3154297</ele>
        <time>2013-08-26T10:49:10Z</time>
      </trkpt>
      <trkpt lat="44.43507" lon="6.14994">
        <ele>1238.3154297</ele>
        <time>2013-08-26T10:49:25Z</time>
      </trkpt>
      <trkpt lat="44.43504" lon="6.15008">
        <ele>1237.8347168</ele>
        <time>2013-08-26T10:49:29Z</time>
      </trkpt>
      <trkpt lat="44.43483" lon="6.1504">
        <ele>1237.8347168</ele>
        <time>2013-08-26T10:49:42Z</time>
      </trkpt>
      <trkpt lat="44.43477" lon="6.15047">
        <ele>1237.8347168</ele>
        <time>2013-08-26T10:49:46Z</time>
      </trkpt>
      <trkpt lat="44.43456" lon="6.1507">
        <ele>1239.2766113</ele>
        <time>2013-08-26T10:49:58Z</time>
      </trkpt>
      <trkpt lat="44.43435" lon="6.15089">
        <ele>1240.2380371</ele>
        <time>2013-08-26T10:50:10Z</time>
      </trkpt>
      <trkpt lat="44.4342" lon="6.151">
        <ele>1237.8347168</ele>
        <time>2013-08-26T10:50:24Z</time>
      </trkpt>
      <trkpt lat="44.43418" lon="6.15102">
        <ele>1237.3540039</ele>
        <time>2013-08-26T10:50:25Z</time>
      </trkpt>
      <trkpt lat="44.43405" lon="6.1511">
        <ele>1234.4702148</ele>
        <time>2013-08-26T10:50:36Z</time>
      </trkpt>
      <trkpt lat="44.434" lon="6.15115">
        <ele>1233.0280762</ele>
        <time>2013-08-26T10:50:46Z</time>
      </trkpt>
      <trkpt lat="44.43381" lon="6.1513">
        <ele>1230.625</ele>
        <time>2013-08-26T10:51:01Z</time>
      </trkpt>
      <trkpt lat="44.43365" lon="6.15143">
        <ele>1227.7407227</ele>
        <time>2013-08-26T10:51:15Z</time>
      </trkpt>
      <trkpt lat="44.43354" lon="6.1516">
        <ele>1224.8569336</ele>
        <time>2013-08-26T10:51:30Z</time>
      </trkpt>
      <trkpt lat="44.43334" lon="6.15179">
        <ele>1221.9729004</ele>
        <time>2013-08-26T10:51:45Z</time>
      </trkpt>
      <trkpt lat="44.4331" lon="6.15212">
        <ele>1219.5698242</ele>
        <time>2013-08-26T10:52:03Z</time>
      </trkpt>
      <trkpt lat="44.43289" lon="6.15239">
        <ele>1217.1665039</ele>
        <time>2013-08-26T10:52:14Z</time>
      </trkpt>
      <trkpt lat="44.43286" lon="6.15244">
        <ele>1218.6083984</ele>
        <time>2013-08-26T10:52:30Z</time>
      </trkpt>
      <trkpt lat="44.43278" lon="6.15255">
        <ele>1217.6469727</ele>
        <time>2013-08-26T10:52:41Z</time>
      </trkpt>
      <trkpt lat="44.43262" lon="6.15271">
        <ele>1217.1665039</ele>
        <time>2013-08-26T10:52:55Z</time>
      </trkpt>
      <trkpt lat="44.43236" lon="6.15283">
        <ele>1214.2824707</ele>
        <time>2013-08-26T10:53:09Z</time>
      </trkpt>
      <trkpt lat="44.43227" lon="6.15288">
        <ele>1212.3598633</ele>
        <time>2013-08-26T10:53:15Z</time>
      </trkpt>
      <trkpt lat="44.43219" lon="6.15298">
        <ele>1210.9177246</ele>
        <time>2013-08-26T10:53:26Z</time>
      </trkpt>
      <trkpt lat="44.43217" lon="6.153">
        <ele>1209.9562988</ele>
        <time>2013-08-26T10:53:45Z</time>
      </trkpt>
      <trkpt lat="44.43208" lon="6.153">
        <ele>1208.0339355</ele>
        <time>2013-08-26T10:54:03Z</time>
      </trkpt>
      <trkpt lat="44.432" lon="6.153">
        <ele>1206.5917969</ele>
        <time>2013-08-26T10:54:18Z</time>
      </trkpt>
      <trkpt lat="44.43186" lon="6.15298">
        <ele>1203.2272949</ele>
        <time>2013-08-26T10:54:42Z</time>
      </trkpt>
      <trkpt lat="44.43171" lon="6.1529">
        <ele>1199.862793</ele>
        <time>2013-08-26T10:55:02Z</time>
      </trkpt>
      <trkpt lat="44.43171" lon="6.15288">
        <ele>1198.9013672</ele>
        <time>2013-08-26T10:55:05Z</time>
      </trkpt>
      <trkpt lat="44.43156" lon="6.15274">
        <ele>1196.0175781</ele>
        <time>2013-08-26T10:55:31Z</time>
      </trkpt>
      <trkpt lat="44.43156" lon="6.15275">
        <ele>1196.0175781</ele>
        <time>2013-08-26T10:55:32Z</time>
      </trkpt>
      <trkpt lat="44.43134" lon="6.15288">
        <ele>1192.652832</ele>
        <time>2013-08-26T10:55:42Z</time>
      </trkpt>
      <trkpt lat="44.43129" lon="6.15296">
        <ele>1191.2106934</ele>
        <time>2013-08-26T10:55:45Z</time>
      </trkpt>
      <trkpt lat="44.43121" lon="6.15308">
        <ele>1188.8076172</ele>
        <time>2013-08-26T10:55:50Z</time>
      </trkpt>
      <trkpt lat="44.43106" lon="6.15328">
        <ele>1185.4428711</ele>
        <time>2013-08-26T10:55:58Z</time>
      </trkpt>
      <trkpt lat="44.43101" lon="6.15333">
        <ele>1184.4816895</ele>
        <time>2013-08-26T10:56:01Z</time>
      </trkpt>
      <trkpt lat="44.43102" lon="6.15345">
        <ele>1183.0395508</ele>
        <time>2013-08-26T10:56:12Z</time>
      </trkpt>
      <trkpt lat="44.43108" lon="6.15336">
        <ele>1184.0009766</ele>
        <time>2013-08-26T10:56:27Z</time>
      </trkpt>
      <trkpt lat="44.4311" lon="6.15333">
        <ele>1184.4816895</ele>
        <time>2013-08-26T10:56:30Z</time>
      </trkpt>
      <trkpt lat="44.4312" lon="6.15338">
        <ele>1185.4428711</ele>
        <time>2013-08-26T10:56:49Z</time>
      </trkpt>
      <trkpt lat="44.43122" lon="6.15347">
        <ele>1184.0009766</ele>
        <time>2013-08-26T10:57:07Z</time>
      </trkpt>
      <trkpt lat="44.43119" lon="6.1536">
        <ele>1180.6364746</ele>
        <time>2013-08-26T10:57:24Z</time>
      </trkpt>
      <trkpt lat="44.43117" lon="6.15363">
        <ele>1180.1557617</ele>
        <time>2013-08-26T10:57:44Z</time>
      </trkpt>
      <trkpt lat="44.43113" lon="6.15366">
        <ele>1179.1940918</ele>
        <time>2013-08-26T10:57:48Z</time>
      </trkpt>
      <trkpt lat="44.4311" lon="6.1537">
        <ele>1177.7521973</ele>
        <time>2013-08-26T10:57:51Z</time>
      </trkpt>
      <trkpt lat="44.43093" lon="6.15392">
        <ele>1173.4265137</ele>
        <time>2013-08-26T10:58:08Z</time>
      </trkpt>
      <trkpt lat="44.43086" lon="6.1541">
        <ele>1171.5036621</ele>
        <time>2013-08-26T10:58:22Z</time>
      </trkpt>
      <trkpt lat="44.4308" lon="6.15424">
        <ele>1169.1005859</ele>
        <time>2013-08-26T10:58:30Z</time>
      </trkpt>
      <trkpt lat="44.43074" lon="6.15439">
        <ele>1165.736084</ele>
        <time>2013-08-26T10:58:36Z</time>
      </trkpt>
      <trkpt lat="44.43073" lon="6.15442">
        <ele>1165.736084</ele>
        <time>2013-08-26T10:58:37Z</time>
      </trkpt>
      <trkpt lat="44.43051" lon="6.15475">
        <ele>1162.3710938</ele>
        <time>2013-08-26T10:58:47Z</time>
      </trkpt>
      <trkpt lat="44.43034" lon="6.15511">
        <ele>1160.4484863</ele>
        <time>2013-08-26T10:58:55Z</time>
      </trkpt>
      <trkpt lat="44.43017" lon="6.15544">
        <ele>1160.4484863</ele>
        <time>2013-08-26T10:59:05Z</time>
      </trkpt>
      <trkpt lat="44.43007" lon="6.15558">
        <ele>1159.4873047</ele>
        <time>2013-08-26T10:59:11Z</time>
      </trkpt>
      <trkpt lat="44.42991" lon="6.15578">
        <ele>1156.1225586</ele>
        <time>2013-08-26T10:59:22Z</time>
      </trkpt>
      <trkpt lat="44.42986" lon="6.15585">
        <ele>1155.6420898</ele>
        <time>2013-08-26T10:59:25Z</time>
      </trkpt>
      <trkpt lat="44.42982" lon="6.15589">
        <ele>1155.6420898</ele>
        <time>2013-08-26T10:59:27Z</time>
      </trkpt>
      <trkpt lat="44.42973" lon="6.15618">
        <ele>1153.2387695</ele>
        <time>2013-08-26T10:59:37Z</time>
      </trkpt>
      <trkpt lat="44.42971" lon="6.1564">
        <ele>1149.8742676</ele>
        <time>2013-08-26T10:59:50Z</time>
      </trkpt>
      <trkpt lat="44.42969" lon="6.15649">
        <ele>1146.9899902</ele>
        <time>2013-08-26T11:00:08Z</time>
      </trkpt>
      <trkpt lat="44.4296" lon="6.1568">
        <ele>1144.5866699</ele>
        <time>2013-08-26T11:00:24Z</time>
      </trkpt>
      <trkpt lat="44.4295" lon="6.15706">
        <ele>1141.7028809</ele>
        <time>2013-08-26T11:00:40Z</time>
      </trkpt>
      <trkpt lat="44.42947" lon="6.15713">
        <ele>1141.7028809</ele>
        <time>2013-08-26T11:00:44Z</time>
      </trkpt>
      <trkpt lat="44.4294" lon="6.15729">
        <ele>1139.7802734</ele>
        <time>2013-08-26T11:00:55Z</time>
      </trkpt>
      <trkpt lat="44.42934" lon="6.15743">
        <ele>1137.857666</ele>
        <time>2013-08-26T11:01:07Z</time>
      </trkpt>
      <trkpt lat="44.42929" lon="6.15756">
        <ele>1136.4157715</ele>
        <time>2013-08-26T11:01:11Z</time>
      </trkpt>
      <trkpt lat="44.42919" lon="6.15779">
        <ele>1135.9350586</ele>
        <time>2013-08-26T11:01:19Z</time>
      </trkpt>
      <trkpt lat="44.42912" lon="6.15797">
        <ele>1134.4931641</ele>
        <time>2013-08-26T11:01:32Z</time>
      </trkpt>
      <trkpt lat="44.42911" lon="6.15799">
        <ele>1133.5317383</ele>
        <time>2013-08-26T11:01:42Z</time>
      </trkpt>
      <trkpt lat="44.42909" lon="6.15805">
        <ele>1133.5317383</ele>
        <time>2013-08-26T11:01:45Z</time>
      </trkpt>
      <trkpt lat="44.42906" lon="6.1581">
        <ele>1134.0124512</ele>
        <time>2013-08-26T11:01:50Z</time>
      </trkpt>
      <trkpt lat="44.42901" lon="6.15824">
        <ele>1135.4543457</ele>
        <time>2013-08-26T11:02:02Z</time>
      </trkpt>
      <trkpt lat="44.42901" lon="6.15824">
        <ele>1137.3769531</ele>
        <time>2013-08-26T11:02:19Z</time>
      </trkpt>
      <trkpt lat="44.42901" lon="6.15824">
        <ele>1137.857666</ele>
        <time>2013-08-26T11:02:23Z</time>
      </trkpt>
      <trkpt lat="44.42888" lon="6.15866">
        <ele>1135.9350586</ele>
        <time>2013-08-26T11:02:33Z</time>
      </trkpt>
      <trkpt lat="44.42869" lon="6.15864">
        <ele>1133.5317383</ele>
        <time>2013-08-26T11:02:46Z</time>
      </trkpt>
      <trkpt lat="44.4285" lon="6.15861">
        <ele>1132.0898438</ele>
        <time>2013-08-26T11:02:54Z</time>
      </trkpt>
      <trkpt lat="44.4285" lon="6.15861">
        <ele>1132.0898438</ele>
        <time>2013-08-26T11:03:11Z</time>
      </trkpt>
      <trkpt lat="44.42841" lon="6.15858">
        <ele>1130.6477051</ele>
        <time>2013-08-26T11:03:25Z</time>
      </trkpt>
      <trkpt lat="44.42839" lon="6.15856">
        <ele>1130.1669922</ele>
        <time>2013-08-26T11:03:31Z</time>
      </trkpt>
      <trkpt lat="44.4283" lon="6.15856">
        <ele>1129.2055664</ele>
        <time>2013-08-26T11:03:46Z</time>
      </trkpt>
      <trkpt lat="44.42825" lon="6.1586">
        <ele>1128.7250977</ele>
        <time>2013-08-26T11:04:11Z</time>
      </trkpt>
      <trkpt lat="44.42824" lon="6.15861">
        <ele>1128.7250977</ele>
        <time>2013-08-26T11:04:40Z</time>
      </trkpt>
      <trkpt lat="44.4281" lon="6.15871">
        <ele>1128.7250977</ele>
        <time>2013-08-26T11:04:54Z</time>
      </trkpt>
      <trkpt lat="44.42795" lon="6.15879">
        <ele>1129.6862793</ele>
        <time>2013-08-26T11:05:10Z</time>
      </trkpt>
      <trkpt lat="44.42788" lon="6.15886">
        <ele>1131.128418</ele>
        <time>2013-08-26T11:05:21Z</time>
      </trkpt>
      <trkpt lat="44.42782" lon="6.15906">
        <ele>1133.0510254</ele>
        <time>2013-08-26T11:05:40Z</time>
      </trkpt>
      <trkpt lat="44.42783" lon="6.15924">
        <ele>1134.973877</ele>
        <time>2013-08-26T11:05:55Z</time>
      </trkpt>
      <trkpt lat="44.42782" lon="6.1595">
        <ele>1137.857666</ele>
        <time>2013-08-26T11:06:19Z</time>
      </trkpt>
      <trkpt lat="44.42788" lon="6.15976">
        <ele>1139.2995605</ele>
        <time>2013-08-26T11:06:40Z</time>
      </trkpt>
      <trkpt lat="44.42799" lon="6.15999">
        <ele>1141.7028809</ele>
        <time>2013-08-26T11:07:00Z</time>
      </trkpt>
      <trkpt lat="44.42801" lon="6.16003">
        <ele>1141.7028809</ele>
        <time>2013-08-26T11:07:24Z</time>
      </trkpt>
      <trkpt lat="44.42824" lon="6.1604">
        <ele>1140.2609863</ele>
        <time>2013-08-26T11:07:36Z</time>
      </trkpt>
      <trkpt lat="44.42857" lon="6.16072">
        <ele>1137.3769531</ele>
        <time>2013-08-26T11:07:49Z</time>
      </trkpt>
      <trkpt lat="44.42867" lon="6.16117">
        <ele>1134.973877</ele>
        <time>2013-08-26T11:08:03Z</time>
      </trkpt>
      <trkpt lat="44.42865" lon="6.16145">
        <ele>1134.4931641</ele>
        <time>2013-08-26T11:08:08Z</time>
      </trkpt>
      <trkpt lat="44.42866" lon="6.16159">
        <ele>1134.0124512</ele>
        <time>2013-08-26T11:08:10Z</time>
      </trkpt>
      <trkpt lat="44.42875" lon="6.16189">
        <ele>1133.0510254</ele>
        <time>2013-08-26T11:08:16Z</time>
      </trkpt>
      <trkpt lat="44.42905" lon="6.1626">
        <ele>1129.2055664</ele>
        <time>2013-08-26T11:08:31Z</time>
      </trkpt>
      <trkpt lat="44.42933" lon="6.16323">
        <ele>1125.8410645</ele>
        <time>2013-08-26T11:08:44Z</time>
      </trkpt>
      <trkpt lat="44.42951" lon="6.16369">
        <ele>1123.918457</ele>
        <time>2013-08-26T11:08:55Z</time>
      </trkpt>
      <trkpt lat="44.42952" lon="6.16373">
        <ele>1123.4379883</ele>
        <time>2013-08-26T11:09:12Z</time>
      </trkpt>
      <trkpt lat="44.42964" lon="6.16396">
        <ele>1121.9958496</ele>
        <time>2013-08-26T11:09:21Z</time>
      </trkpt>
      <trkpt lat="44.42977" lon="6.16418">
        <ele>1121.5151367</ele>
        <time>2013-08-26T11:09:28Z</time>
      </trkpt>
      <trkpt lat="44.43011" lon="6.16452">
        <ele>1119.5927734</ele>
        <time>2013-08-26T11:09:38Z</time>
      </trkpt>
      <trkpt lat="44.43039" lon="6.16487">
        <ele>1117.1894531</ele>
        <time>2013-08-26T11:09:47Z</time>
      </trkpt>
      <trkpt lat="44.43058" lon="6.16512">
        <ele>1115.7473145</ele>
        <time>2013-08-26T11:09:53Z</time>
      </trkpt>
      <trkpt lat="44.43091" lon="6.16567">
        <ele>1112.8632813</ele>
        <time>2013-08-26T11:10:04Z</time>
      </trkpt>
      <trkpt lat="44.43114" lon="6.16635">
        <ele>1109.979248</ele>
        <time>2013-08-26T11:10:18Z</time>
      </trkpt>
      <trkpt lat="44.43113" lon="6.16657">
        <ele>1109.0180664</ele>
        <time>2013-08-26T11:10:22Z</time>
      </trkpt>
      <trkpt lat="44.43123" lon="6.16678">
        <ele>1108.5373535</ele>
        <time>2013-08-26T11:10:26Z</time>
      </trkpt>
      <trkpt lat="44.43149" lon="6.16723">
        <ele>1105.1728516</ele>
        <time>2013-08-26T11:10:40Z</time>
      </trkpt>
      <trkpt lat="44.43152" lon="6.16734">
        <ele>1104.6921387</ele>
        <time>2013-08-26T11:10:51Z</time>
      </trkpt>
      <trkpt lat="44.43152" lon="6.16734">
        <ele>1104.2116699</ele>
        <time>2013-08-26T11:11:13Z</time>
      </trkpt>
      <trkpt lat="44.43152" lon="6.16734">
        <ele>1105.1728516</ele>
        <time>2013-08-26T11:11:32Z</time>
      </trkpt>
      <trkpt lat="44.43155" lon="6.16746">
        <ele>1104.6921387</ele>
        <time>2013-08-26T11:11:48Z</time>
      </trkpt>
      <trkpt lat="44.43154" lon="6.16776">
        <ele>1103.2502441</ele>
        <time>2013-08-26T11:12:06Z</time>
      </trkpt>
      <trkpt lat="44.43124" lon="6.16795">
        <ele>1101.3276367</ele>
        <time>2013-08-26T11:12:16Z</time>
      </trkpt>
      <trkpt lat="44.4309" lon="6.16824">
        <ele>1098.4433594</ele>
        <time>2013-08-26T11:12:27Z</time>
      </trkpt>
      <trkpt lat="44.4306" lon="6.16863">
        <ele>1095.5595703</ele>
        <time>2013-08-26T11:12:36Z</time>
      </trkpt>
      <trkpt lat="44.43058" lon="6.16867">
        <ele>1095.5595703</ele>
        <time>2013-08-26T11:12:37Z</time>
      </trkpt>
      <trkpt lat="44.43035" lon="6.16898">
        <ele>1094.5981445</ele>
        <time>2013-08-26T11:12:46Z</time>
      </trkpt>
      <trkpt lat="44.42992" lon="6.16941">
        <ele>1090.7529297</ele>
        <time>2013-08-26T11:12:59Z</time>
      </trkpt>
      <trkpt lat="44.42944" lon="6.16956">
        <ele>1088.3498535</ele>
        <time>2013-08-26T11:13:14Z</time>
      </trkpt>
      <trkpt lat="44.42877" lon="6.16974">
        <ele>1084.9853516</ele>
        <time>2013-08-26T11:13:31Z</time>
      </trkpt>
      <trkpt lat="44.42869" lon="6.16978">
        <ele>1084.5046387</ele>
        <time>2013-08-26T11:13:33Z</time>
      </trkpt>
      <trkpt lat="44.42836" lon="6.17006">
        <ele>1081.6203613</ele>
        <time>2013-08-26T11:13:44Z</time>
      </trkpt>
      <trkpt lat="44.42805" lon="6.17044">
        <ele>1078.7365723</ele>
        <time>2013-08-26T11:13:57Z</time>
      </trkpt>
      <trkpt lat="44.42786" lon="6.17093">
        <ele>1076.8139648</ele>
        <time>2013-08-26T11:14:08Z</time>
      </trkpt>
      <trkpt lat="44.42767" lon="6.17166">
        <ele>1074.4106445</ele>
        <time>2013-08-26T11:14:22Z</time>
      </trkpt>
      <trkpt lat="44.42778" lon="6.17168">
        <ele>1072.96875</ele>
        <time>2013-08-26T11:14:31Z</time>
      </trkpt>
      <trkpt lat="44.42778" lon="6.17164">
        <ele>1072.4880371</ele>
        <time>2013-08-26T11:14:32Z</time>
      </trkpt>
      <trkpt lat="44.42793" lon="6.1711">
        <ele>1070.0847168</ele>
        <time>2013-08-26T11:14:45Z</time>
      </trkpt>
      <trkpt lat="44.42809" lon="6.17074">
        <ele>1066.7199707</ele>
        <time>2013-08-26T11:14:53Z</time>
      </trkpt>
      <trkpt lat="44.42844" lon="6.17046">
        <ele>1063.3554688</ele>
        <time>2013-08-26T11:15:06Z</time>
      </trkpt>
      <trkpt lat="44.42878" lon="6.17015">
        <ele>1060.4714355</ele>
        <time>2013-08-26T11:15:20Z</time>
      </trkpt>
      <trkpt lat="44.42915" lon="6.17013">
        <ele>1057.1069336</ele>
        <time>2013-08-26T11:15:30Z</time>
      </trkpt>
      <trkpt lat="44.42953" lon="6.17015">
        <ele>1055.1843262</ele>
        <time>2013-08-26T11:15:38Z</time>
      </trkpt>
      <trkpt lat="44.42978" lon="6.17017">
        <ele>1053.7424316</ele>
        <time>2013-08-26T11:15:45Z</time>
      </trkpt>
      <trkpt lat="44.43014" lon="6.16999">
        <ele>1050.3776855</ele>
        <time>2013-08-26T11:15:55Z</time>
      </trkpt>
      <trkpt lat="44.43022" lon="6.1701">
        <ele>1048.454834</ele>
        <time>2013-08-26T11:16:05Z</time>
      </trkpt>
      <trkpt lat="44.42994" lon="6.17034">
        <ele>1046.0517578</ele>
        <time>2013-08-26T11:16:17Z</time>
      </trkpt>
      <trkpt lat="44.42953" lon="6.17047">
        <ele>1043.1677246</ele>
        <time>2013-08-26T11:16:27Z</time>
      </trkpt>
      <trkpt lat="44.42934" lon="6.17061">
        <ele>1041.7258301</ele>
        <time>2013-08-26T11:16:33Z</time>
      </trkpt>
      <trkpt lat="44.42923" lon="6.17071">
        <ele>1039.8032227</ele>
        <time>2013-08-26T11:16:36Z</time>
      </trkpt>
      <trkpt lat="44.42897" lon="6.1708">
        <ele>1036.9191895</ele>
        <time>2013-08-26T11:16:44Z</time>
      </trkpt>
      <trkpt lat="44.42894" lon="6.1708">
        <ele>1036.9191895</ele>
        <time>2013-08-26T11:16:45Z</time>
      </trkpt>
      <trkpt lat="44.42877" lon="6.17086">
        <ele>1035.9577637</ele>
        <time>2013-08-26T11:16:49Z</time>
      </trkpt>
      <trkpt lat="44.42855" lon="6.17118">
        <ele>1033.5544434</ele>
        <time>2013-08-26T11:16:57Z</time>
      </trkpt>
      <trkpt lat="44.42845" lon="6.17148">
        <ele>1033.5544434</ele>
        <time>2013-08-26T11:17:03Z</time>
      </trkpt>
      <trkpt lat="44.42841" lon="6.17162">
        <ele>1032.1125488</ele>
        <time>2013-08-26T11:17:06Z</time>
      </trkpt>
      <trkpt lat="44.42841" lon="6.17169">
        <ele>1031.1513672</ele>
        <time>2013-08-26T11:17:08Z</time>
      </trkpt>
      <trkpt lat="44.42847" lon="6.17208">
        <ele>1027.7866211</ele>
        <time>2013-08-26T11:17:21Z</time>
      </trkpt>
      <trkpt lat="44.42831" lon="6.1725">
        <ele>1024.902832</ele>
        <time>2013-08-26T11:17:34Z</time>
      </trkpt>
      <trkpt lat="44.4283" lon="6.17254">
        <ele>1024.4221191</ele>
        <time>2013-08-26T11:17:35Z</time>
      </trkpt>
      <trkpt lat="44.42813" lon="6.1728">
        <ele>1022.9802246</ele>
        <time>2013-08-26T11:17:41Z</time>
      </trkpt>
      <trkpt lat="44.42789" lon="6.17312">
        <ele>1020.5769043</ele>
        <time>2013-08-26T11:17:53Z</time>
      </trkpt>
      <trkpt lat="44.42767" lon="6.17349">
        <ele>1017.2121582</ele>
        <time>2013-08-26T11:18:03Z</time>
      </trkpt>
      <trkpt lat="44.42742" lon="6.17392">
        <ele>1013.8474121</ele>
        <time>2013-08-26T11:18:14Z</time>
      </trkpt>
      <trkpt lat="44.42714" lon="6.17435">
        <ele>1010.963623</ele>
        <time>2013-08-26T11:18:26Z</time>
      </trkpt>
      <trkpt lat="44.42696" lon="6.17479">
        <ele>1007.5991211</ele>
        <time>2013-08-26T11:18:37Z</time>
      </trkpt>
      <trkpt lat="44.4268" lon="6.17512">
        <ele>1006.1569824</ele>
        <time>2013-08-26T11:18:46Z</time>
      </trkpt>
      <trkpt lat="44.42677" lon="6.17529">
        <ele>1005.1958008</ele>
        <time>2013-08-26T11:18:56Z</time>
      </trkpt>
      <trkpt lat="44.42677" lon="6.17529">
        <ele>1004.7150879</ele>
        <time>2013-08-26T11:19:29Z</time>
      </trkpt>
      <trkpt lat="44.4269" lon="6.1752">
        <ele>1004.2346191</ele>
        <time>2013-08-26T11:19:38Z</time>
      </trkpt>
      <trkpt lat="44.42701" lon="6.17493">
        <ele>1002.7922363</ele>
        <time>2013-08-26T11:19:45Z</time>
      </trkpt>
      <trkpt lat="44.42721" lon="6.17449">
        <ele>1001.3503418</ele>
        <time>2013-08-26T11:19:56Z</time>
      </trkpt>
      <trkpt lat="44.42725" lon="6.17445">
        <ele>1000.8696289</ele>
        <time>2013-08-26T11:20:06Z</time>
      </trkpt>
      <trkpt lat="44.42743" lon="6.17429">
        <ele>998.9470215</ele>
        <time>2013-08-26T11:20:15Z</time>
      </trkpt>
      <trkpt lat="44.42768" lon="6.17405">
        <ele>996.0632324</ele>
        <time>2013-08-26T11:20:24Z</time>
      </trkpt>
      <trkpt lat="44.42806" lon="6.17362">
        <ele>993.1791992</ele>
        <time>2013-08-26T11:20:35Z</time>
      </trkpt>
      <trkpt lat="44.42808" lon="6.1736">
        <ele>993.1791992</ele>
        <time>2013-08-26T11:20:36Z</time>
      </trkpt>
      <trkpt lat="44.42815" lon="6.17351">
        <ele>991.2565918</ele>
        <time>2013-08-26T11:20:39Z</time>
      </trkpt>
      <trkpt lat="44.42839" lon="6.17337">
        <ele>988.8535156</ele>
        <time>2013-08-26T11:20:46Z</time>
      </trkpt>
      <trkpt lat="44.42844" lon="6.17335">
        <ele>988.8535156</ele>
        <time>2013-08-26T11:20:47Z</time>
      </trkpt>
      <trkpt lat="44.42862" lon="6.17316">
        <ele>985.9692383</ele>
        <time>2013-08-26T11:20:52Z</time>
      </trkpt>
      <trkpt lat="44.42865" lon="6.17312">
        <ele>985.9692383</ele>
        <time>2013-08-26T11:20:53Z</time>
      </trkpt>
      <trkpt lat="44.42893" lon="6.17279">
        <ele>983.565918</ele>
        <time>2013-08-26T11:21:04Z</time>
      </trkpt>
      <trkpt lat="44.42903" lon="6.17262">
        <ele>981.1628418</ele>
        <time>2013-08-26T11:21:09Z</time>
      </trkpt>
      <trkpt lat="44.42905" lon="6.17253">
        <ele>981.1628418</ele>
        <time>2013-08-26T11:21:11Z</time>
      </trkpt>
      <trkpt lat="44.42904" lon="6.17228">
        <ele>979.7207031</ele>
        <time>2013-08-26T11:21:16Z</time>
      </trkpt>
      <trkpt lat="44.42911" lon="6.17202">
        <ele>978.7595215</ele>
        <time>2013-08-26T11:21:22Z</time>
      </trkpt>
      <trkpt lat="44.42933" lon="6.17202">
        <ele>976.8369141</ele>
        <time>2013-08-26T11:21:29Z</time>
      </trkpt>
      <trkpt lat="44.42962" lon="6.1722">
        <ele>974.4335938</ele>
        <time>2013-08-26T11:21:40Z</time>
      </trkpt>
      <trkpt lat="44.42999" lon="6.17198">
        <ele>972.0302734</ele>
        <time>2013-08-26T11:21:53Z</time>
      </trkpt>
      <trkpt lat="44.43024" lon="6.17202">
        <ele>969.6269531</ele>
        <time>2013-08-26T11:22:02Z</time>
      </trkpt>
      <trkpt lat="44.43061" lon="6.17201">
        <ele>966.262207</ele>
        <time>2013-08-26T11:22:15Z</time>
      </trkpt>
      <trkpt lat="44.43097" lon="6.17197">
        <ele>963.378418</ele>
        <time>2013-08-26T11:22:29Z</time>
      </trkpt>
      <trkpt lat="44.43133" lon="6.17176">
        <ele>960.4943848</ele>
        <time>2013-08-26T11:22:37Z</time>
      </trkpt>
      <trkpt lat="44.43154" lon="6.17167">
        <ele>958.0913086</ele>
        <time>2013-08-26T11:22:43Z</time>
      </trkpt>
      <trkpt lat="44.43168" lon="6.17166">
        <ele>957.1298828</ele>
        <time>2013-08-26T11:22:46Z</time>
      </trkpt>
      <trkpt lat="44.43201" lon="6.17159">
        <ele>954.7263184</ele>
        <time>2013-08-26T11:22:56Z</time>
      </trkpt>
      <trkpt lat="44.43213" lon="6.17151">
        <ele>953.7651367</ele>
        <time>2013-08-26T11:22:59Z</time>
      </trkpt>
      <trkpt lat="44.43251" lon="6.17119">
        <ele>950.8811035</ele>
        <time>2013-08-26T11:23:10Z</time>
      </trkpt>
      <trkpt lat="44.43282" lon="6.17085">
        <ele>947.9973145</ele>
        <time>2013-08-26T11:23:21Z</time>
      </trkpt>
      <trkpt lat="44.43285" lon="6.17082">
        <ele>947.0358887</ele>
        <time>2013-08-26T11:23:22Z</time>
      </trkpt>
      <trkpt lat="44.43317" lon="6.17052">
        <ele>943.6713867</ele>
        <time>2013-08-26T11:23:31Z</time>
      </trkpt>
      <trkpt lat="44.43324" lon="6.17047">
        <ele>943.1906738</ele>
        <time>2013-08-26T11:23:33Z</time>
      </trkpt>
      <trkpt lat="44.43338" lon="6.17036">
        <ele>942.2294922</ele>
        <time>2013-08-26T11:23:37Z</time>
      </trkpt>
      <trkpt lat="44.4334" lon="6.17055">
        <ele>940.7873535</ele>
        <time>2013-08-26T11:23:45Z</time>
      </trkpt>
      <trkpt lat="44.43338" lon="6.17056">
        <ele>940.7873535</ele>
        <time>2013-08-26T11:23:46Z</time>
      </trkpt>
      <trkpt lat="44.43312" lon="6.17081">
        <ele>938.3840332</ele>
        <time>2013-08-26T11:23:57Z</time>
      </trkpt>
      <trkpt lat="44.4331" lon="6.17086">
        <ele>938.3840332</ele>
        <time>2013-08-26T11:23:58Z</time>
      </trkpt>
      <trkpt lat="44.43296" lon="6.17142">
        <ele>934.5388184</ele>
        <time>2013-08-26T11:24:09Z</time>
      </trkpt>
      <trkpt lat="44.43293" lon="6.17149">
        <ele>933.5773926</ele>
        <time>2013-08-26T11:24:17Z</time>
      </trkpt>
      <trkpt lat="44.43287" lon="6.17159">
        <ele>933.0966797</ele>
        <time>2013-08-26T11:24:42Z</time>
      </trkpt>
      <trkpt lat="44.43271" lon="6.17179">
        <ele>931.6547852</ele>
        <time>2013-08-26T11:24:49Z</time>
      </trkpt>
      <trkpt lat="44.4326" lon="6.17191">
        <ele>930.6936035</ele>
        <time>2013-08-26T11:24:53Z</time>
      </trkpt>
      <trkpt lat="44.43241" lon="6.17211">
        <ele>927.3291016</ele>
        <time>2013-08-26T11:25:01Z</time>
      </trkpt>
      <trkpt lat="44.43236" lon="6.17216">
        <ele>926.3676758</ele>
        <time>2013-08-26T11:25:03Z</time>
      </trkpt>
      <trkpt lat="44.43222" lon="6.17225">
        <ele>925.40625</ele>
        <time>2013-08-26T11:25:07Z</time>
      </trkpt>
      <trkpt lat="44.43209" lon="6.17242">
        <ele>923.9641113</ele>
        <time>2013-08-26T11:25:12Z</time>
      </trkpt>
      <trkpt lat="44.43189" lon="6.17253">
        <ele>923.9641113</ele>
        <time>2013-08-26T11:25:17Z</time>
      </trkpt>
      <trkpt lat="44.43181" lon="6.17255">
        <ele>922.5222168</ele>
        <time>2013-08-26T11:25:19Z</time>
      </trkpt>
      <trkpt lat="44.43168" lon="6.17269">
        <ele>921.0803223</ele>
        <time>2013-08-26T11:25:23Z</time>
      </trkpt>
      <trkpt lat="44.43143" lon="6.17308">
        <ele>917.2351074</ele>
        <time>2013-08-26T11:25:34Z</time>
      </trkpt>
      <trkpt lat="44.43108" lon="6.17327">
        <ele>915.7932129</ele>
        <time>2013-08-26T11:25:47Z</time>
      </trkpt>
      <trkpt lat="44.43097" lon="6.17327">
        <ele>914.8317871</ele>
        <time>2013-08-26T11:25:50Z</time>
      </trkpt>
      <trkpt lat="44.43064" lon="6.17331">
        <ele>912.9091797</ele>
        <time>2013-08-26T11:25:58Z</time>
      </trkpt>
      <trkpt lat="44.4305" lon="6.17334">
        <ele>911.947998</ele>
        <time>2013-08-26T11:26:01Z</time>
      </trkpt>
      <trkpt lat="44.43041" lon="6.1734">
        <ele>910.5058594</ele>
        <time>2013-08-26T11:26:03Z</time>
      </trkpt>
      <trkpt lat="44.43034" lon="6.17346">
        <ele>910.5058594</ele>
        <time>2013-08-26T11:26:05Z</time>
      </trkpt>
      <trkpt lat="44.43008" lon="6.17346">
        <ele>908.583252</ele>
        <time>2013-08-26T11:26:11Z</time>
      </trkpt>
      <trkpt lat="44.42998" lon="6.17381">
        <ele>907.1411133</ele>
        <time>2013-08-26T11:26:20Z</time>
      </trkpt>
      <trkpt lat="44.43001" lon="6.17393">
        <ele>906.6604004</ele>
        <time>2013-08-26T11:26:22Z</time>
      </trkpt>
      <trkpt lat="44.43003" lon="6.17404">
        <ele>905.2185059</ele>
        <time>2013-08-26T11:26:24Z</time>
      </trkpt>
      <trkpt lat="44.43004" lon="6.17431">
        <ele>904.2573242</ele>
        <time>2013-08-26T11:26:28Z</time>
      </trkpt>
      <trkpt lat="44.42998" lon="6.17448">
        <ele>902.3344727</ele>
        <time>2013-08-26T11:26:31Z</time>
      </trkpt>
      <trkpt lat="44.42993" lon="6.17482">
        <ele>899.4506836</ele>
        <time>2013-08-26T11:26:36Z</time>
      </trkpt>
      <trkpt lat="44.42991" lon="6.17501">
        <ele>898.4892578</ele>
        <time>2013-08-26T11:26:39Z</time>
      </trkpt>
      <trkpt lat="44.42989" lon="6.17522">
        <ele>896.5668945</ele>
        <time>2013-08-26T11:26:43Z</time>
      </trkpt>
      <trkpt lat="44.4299" lon="6.17531">
        <ele>895.6054688</ele>
        <time>2013-08-26T11:26:45Z</time>
      </trkpt>
      <trkpt lat="44.42993" lon="6.17545">
        <ele>894.644043</ele>
        <time>2013-08-26T11:26:48Z</time>
      </trkpt>
      <trkpt lat="44.42993" lon="6.17558">
        <ele>894.1635742</ele>
        <time>2013-08-26T11:26:51Z</time>
      </trkpt>
      <trkpt lat="44.42981" lon="6.1757">
        <ele>893.2021484</ele>
        <time>2013-08-26T11:26:55Z</time>
      </trkpt>
      <trkpt lat="44.42965" lon="6.17573">
        <ele>892.2409668</ele>
        <time>2013-08-26T11:26:59Z</time>
      </trkpt>
      <trkpt lat="44.42954" lon="6.17596">
        <ele>890.798584</ele>
        <time>2013-08-26T11:27:06Z</time>
      </trkpt>
      <trkpt lat="44.42964" lon="6.1765">
        <ele>886.9533691</ele>
        <time>2013-08-26T11:27:18Z</time>
      </trkpt>
      <trkpt lat="44.42952" lon="6.17671">
        <ele>885.5114746</ele>
        <time>2013-08-26T11:27:23Z</time>
      </trkpt>
      <trkpt lat="44.42941" lon="6.17722">
        <ele>882.1469727</ele>
        <time>2013-08-26T11:27:32Z</time>
      </trkpt>
      <trkpt lat="44.42932" lon="6.17761">
        <ele>879.7436523</ele>
        <time>2013-08-26T11:27:41Z</time>
      </trkpt>
      <trkpt lat="44.42908" lon="6.17803">
        <ele>877.3405762</ele>
        <time>2013-08-26T11:27:51Z</time>
      </trkpt>
      <trkpt lat="44.42909" lon="6.17808">
        <ele>877.3405762</ele>
        <time>2013-08-26T11:27:52Z</time>
      </trkpt>
      <trkpt lat="44.42914" lon="6.1785">
        <ele>874.9370117</ele>
        <time>2013-08-26T11:28:01Z</time>
      </trkpt>
      <trkpt lat="44.42901" lon="6.17889">
        <ele>871.5722656</ele>
        <time>2013-08-26T11:28:13Z</time>
      </trkpt>
      <trkpt lat="44.42897" lon="6.17898">
        <ele>871.0917969</ele>
        <time>2013-08-26T11:28:27Z</time>
      </trkpt>
      <trkpt lat="44.42897" lon="6.17898">
        <ele>869.1691895</ele>
        <time>2013-08-26T11:28:40Z</time>
      </trkpt>
      <trkpt lat="44.42897" lon="6.17898">
        <ele>871.0917969</ele>
        <time>2013-08-26T11:28:43Z</time>
      </trkpt>
      <trkpt lat="44.42897" lon="6.17898">
        <ele>871.5722656</ele>
        <time>2013-08-26T11:29:03Z</time>
      </trkpt>
      <trkpt lat="44.42884" lon="6.17919">
        <ele>869.1691895</ele>
        <time>2013-08-26T11:30:00Z</time>
      </trkpt>
      <trkpt lat="44.4287" lon="6.17938">
        <ele>868.2077637</ele>
        <time>2013-08-26T11:30:05Z</time>
      </trkpt>
      <trkpt lat="44.42847" lon="6.17969">
        <ele>866.2851563</ele>
        <time>2013-08-26T11:30:13Z</time>
      </trkpt>
      <trkpt lat="44.42808" lon="6.18005">
        <ele>862.9206543</ele>
        <time>2013-08-26T11:30:26Z</time>
      </trkpt>
      <trkpt lat="44.42775" lon="6.18008">
        <ele>859.5559082</ele>
        <time>2013-08-26T11:30:35Z</time>
      </trkpt>
      <trkpt lat="44.42732" lon="6.18015">
        <ele>856.671875</ele>
        <time>2013-08-26T11:30:49Z</time>
      </trkpt>
      <trkpt lat="44.42692" lon="6.18013">
        <ele>853.7880859</ele>
        <time>2013-08-26T11:31:00Z</time>
      </trkpt>
      <trkpt lat="44.42683" lon="6.18013">
        <ele>853.307373</ele>
        <time>2013-08-26T11:31:02Z</time>
      </trkpt>
      <trkpt lat="44.42634" lon="6.1799">
        <ele>850.9040527</ele>
        <time>2013-08-26T11:31:15Z</time>
      </trkpt>
      <trkpt lat="44.42616" lon="6.1798">
        <ele>850.423584</ele>
        <time>2013-08-26T11:31:20Z</time>
      </trkpt>
      <trkpt lat="44.42608" lon="6.17976">
        <ele>850.423584</ele>
        <time>2013-08-26T11:31:22Z</time>
      </trkpt>
      <trkpt lat="44.42586" lon="6.17968">
        <ele>849.4621582</ele>
        <time>2013-08-26T11:31:27Z</time>
      </trkpt>
      <trkpt lat="44.42563" lon="6.17956">
        <ele>848.9814453</ele>
        <time>2013-08-26T11:31:32Z</time>
      </trkpt>
      <trkpt lat="44.42555" lon="6.17948">
        <ele>848.0202637</ele>
        <time>2013-08-26T11:31:34Z</time>
      </trkpt>
      <trkpt lat="44.42537" lon="6.17938">
        <ele>847.0588379</ele>
        <time>2013-08-26T11:31:39Z</time>
      </trkpt>
      <trkpt lat="44.42472" lon="6.17913">
        <ele>844.1750488</ele>
        <time>2013-08-26T11:31:58Z</time>
      </trkpt>
      <trkpt lat="44.4244" lon="6.17919">
        <ele>841.2907715</ele>
        <time>2013-08-26T11:32:08Z</time>
      </trkpt>
      <trkpt lat="44.42432" lon="6.17943">
        <ele>838.4069824</ele>
        <time>2013-08-26T11:32:15Z</time>
      </trkpt>
      <trkpt lat="44.42413" lon="6.1799">
        <ele>835.5229492</ele>
        <time>2013-08-26T11:32:26Z</time>
      </trkpt>
      <trkpt lat="44.42384" lon="6.18033">
        <ele>832.1584473</ele>
        <time>2013-08-26T11:32:37Z</time>
      </trkpt>
      <trkpt lat="44.4238" lon="6.18037">
        <ele>831.6777344</ele>
        <time>2013-08-26T11:32:39Z</time>
      </trkpt>
      <trkpt lat="44.42366" lon="6.18053">
        <ele>829.2744141</ele>
        <time>2013-08-26T11:32:46Z</time>
      </trkpt>
      <trkpt lat="44.42347" lon="6.18087">
        <ele>825.909668</ele>
        <time>2013-08-26T11:32:56Z</time>
      </trkpt>
      <trkpt lat="44.42342" lon="6.18097">
        <ele>824.4677734</ele>
        <time>2013-08-26T11:33:00Z</time>
      </trkpt>
      <trkpt lat="44.42311" lon="6.18078">
        <ele>822.0644531</ele>
        <time>2013-08-26T11:33:11Z</time>
      </trkpt>
      <trkpt lat="44.42276" lon="6.18016">
        <ele>819.1806641</ele>
        <time>2013-08-26T11:33:27Z</time>
      </trkpt>
      <trkpt lat="44.42248" lon="6.17994">
        <ele>815.8161621</ele>
        <time>2013-08-26T11:33:36Z</time>
      </trkpt>
      <trkpt lat="44.42223" lon="6.17975">
        <ele>812.451416</ele>
        <time>2013-08-26T11:33:49Z</time>
      </trkpt>
      <trkpt lat="44.42191" lon="6.1795">
        <ele>810.0478516</ele>
        <time>2013-08-26T11:34:00Z</time>
      </trkpt>
      <trkpt lat="44.42182" lon="6.17914">
        <ele>810.0478516</ele>
        <time>2013-08-26T11:34:08Z</time>
      </trkpt>
      <trkpt lat="44.42178" lon="6.17853">
        <ele>807.6447754</ele>
        <time>2013-08-26T11:34:20Z</time>
      </trkpt>
      <trkpt lat="44.42173" lon="6.17817">
        <ele>805.722168</ele>
        <time>2013-08-26T11:34:30Z</time>
      </trkpt>
      <trkpt lat="44.42172" lon="6.17816">
        <ele>805.722168</ele>
        <time>2013-08-26T11:34:41Z</time>
      </trkpt>
      <trkpt lat="44.42172" lon="6.17816">
        <ele>804.7607422</ele>
        <time>2013-08-26T11:34:59Z</time>
      </trkpt>
      <trkpt lat="44.42165" lon="6.17828">
        <ele>804.7607422</ele>
        <time>2013-08-26T11:35:05Z</time>
      </trkpt>
      <trkpt lat="44.42165" lon="6.17839">
        <ele>803.3188477</ele>
        <time>2013-08-26T11:35:07Z</time>
      </trkpt>
      <trkpt lat="44.42155" lon="6.17906">
        <ele>801.8769531</ele>
        <time>2013-08-26T11:35:16Z</time>
      </trkpt>
      <trkpt lat="44.42142" lon="6.17936">
        <ele>800.9155273</ele>
        <time>2013-08-26T11:35:20Z</time>
      </trkpt>
      <trkpt lat="44.42137" lon="6.17978">
        <ele>800.9155273</ele>
        <time>2013-08-26T11:35:25Z</time>
      </trkpt>
      <trkpt lat="44.42139" lon="6.18002">
        <ele>798.9929199</ele>
        <time>2013-08-26T11:35:28Z</time>
      </trkpt>
      <trkpt lat="44.42137" lon="6.18057">
        <ele>797.5510254</ele>
        <time>2013-08-26T11:35:34Z</time>
      </trkpt>
      <trkpt lat="44.42136" lon="6.18137">
        <ele>794.1862793</ele>
        <time>2013-08-26T11:35:41Z</time>
      </trkpt>
      <trkpt lat="44.42135" lon="6.18149">
        <ele>794.1862793</ele>
        <time>2013-08-26T11:35:42Z</time>
      </trkpt>
      <trkpt lat="44.42134" lon="6.18175">
        <ele>793.2248535</ele>
        <time>2013-08-26T11:35:44Z</time>
      </trkpt>
      <trkpt lat="44.42133" lon="6.18231">
        <ele>788.8991699</ele>
        <time>2013-08-26T11:35:48Z</time>
      </trkpt>
      <trkpt lat="44.42133" lon="6.18246">
        <ele>788.8991699</ele>
        <time>2013-08-26T11:35:49Z</time>
      </trkpt>
      <trkpt lat="44.42132" lon="6.1828">
        <ele>789.3796387</ele>
        <time>2013-08-26T11:35:52Z</time>
      </trkpt>
      <trkpt lat="44.42137" lon="6.18311">
        <ele>787.9377441</ele>
        <time>2013-08-26T11:35:55Z</time>
      </trkpt>
      <trkpt lat="44.4215" lon="6.18322">
        <ele>787.9377441</ele>
        <time>2013-08-26T11:35:57Z</time>
      </trkpt>
      <trkpt lat="44.42184" lon="6.1835">
        <ele>787.9377441</ele>
        <time>2013-08-26T11:36:04Z</time>
      </trkpt>
      <trkpt lat="44.42202" lon="6.18375">
        <ele>787.9377441</ele>
        <time>2013-08-26T11:36:09Z</time>
      </trkpt>
      <trkpt lat="44.42235" lon="6.18436">
        <ele>787.9377441</ele>
        <time>2013-08-26T11:36:24Z</time>
      </trkpt>
      <trkpt lat="44.42243" lon="6.18451">
        <ele>786.9763184</ele>
        <time>2013-08-26T11:36:59Z</time>
      </trkpt>
      <trkpt lat="44.42253" lon="6.18514">
        <ele>786.9763184</ele>
        <time>2013-08-26T11:37:14Z</time>
      </trkpt>
      <trkpt lat="44.42248" lon="6.18575">
        <ele>787.4570313</ele>
        <time>2013-08-26T11:37:29Z</time>
      </trkpt>
      <trkpt lat="44.42285" lon="6.18603">
        <ele>786.9763184</ele>
        <time>2013-08-26T11:37:41Z</time>
      </trkpt>
      <trkpt lat="44.42333" lon="6.1861">
        <ele>787.9377441</ele>
        <time>2013-08-26T11:37:59Z</time>
      </trkpt>
      <trkpt lat="44.42345" lon="6.18612">
        <ele>788.8991699</ele>
        <time>2013-08-26T11:38:07Z</time>
      </trkpt>
      <trkpt lat="44.42353" lon="6.1862">
        <ele>789.3796387</ele>
        <time>2013-08-26T11:38:14Z</time>
      </trkpt>
      <trkpt lat="44.42354" lon="6.18623">
        <ele>790.8215332</ele>
        <time>2013-08-26T11:38:21Z</time>
      </trkpt>
      <trkpt lat="44.42322" lon="6.18668">
        <ele>793.7055664</ele>
        <time>2013-08-26T11:38:46Z</time>
      </trkpt>
      <trkpt lat="44.42304" lon="6.18711">
        <ele>795.6281738</ele>
        <time>2013-08-26T11:39:07Z</time>
      </trkpt>
      <trkpt lat="44.42286" lon="6.18767">
        <ele>797.0703125</ele>
        <time>2013-08-26T11:39:30Z</time>
      </trkpt>
      <trkpt lat="44.42271" lon="6.18832">
        <ele>799.9543457</ele>
        <time>2013-08-26T11:39:55Z</time>
      </trkpt>
      <trkpt lat="44.42266" lon="6.18881">
        <ele>800.9155273</ele>
        <time>2013-08-26T11:40:13Z</time>
      </trkpt>
      <trkpt lat="44.42257" lon="6.18933">
        <ele>803.3188477</ele>
        <time>2013-08-26T11:40:36Z</time>
      </trkpt>
      <trkpt lat="44.42253" lon="6.18993">
        <ele>806.2026367</ele>
        <time>2013-08-26T11:41:00Z</time>
      </trkpt>
      <trkpt lat="44.42248" lon="6.19056">
        <ele>807.6447754</ele>
        <time>2013-08-26T11:41:25Z</time>
      </trkpt>
      <trkpt lat="44.4222" lon="6.19102">
        <ele>809.5673828</ele>
        <time>2013-08-26T11:41:46Z</time>
      </trkpt>
      <trkpt lat="44.42186" lon="6.19149">
        <ele>811.4899902</ele>
        <time>2013-08-26T11:42:09Z</time>
      </trkpt>
      <trkpt lat="44.42164" lon="6.19193">
        <ele>813.4128418</ele>
        <time>2013-08-26T11:42:28Z</time>
      </trkpt>
      <trkpt lat="44.42159" lon="6.19257">
        <ele>815.3354492</ele>
        <time>2013-08-26T11:42:52Z</time>
      </trkpt>
      <trkpt lat="44.42162" lon="6.19317">
        <ele>817.2580566</ele>
        <time>2013-08-26T11:43:13Z</time>
      </trkpt>
      <trkpt lat="44.42187" lon="6.19367">
        <ele>818.2192383</ele>
        <time>2013-08-26T11:43:33Z</time>
      </trkpt>
      <trkpt lat="44.42215" lon="6.19424">
        <ele>819.1806641</ele>
        <time>2013-08-26T11:43:54Z</time>
      </trkpt>
      <trkpt lat="44.42246" lon="6.19496">
        <ele>821.1032715</ele>
        <time>2013-08-26T11:44:18Z</time>
      </trkpt>
      <trkpt lat="44.4227" lon="6.19554">
        <ele>822.0644531</ele>
        <time>2013-08-26T11:44:40Z</time>
      </trkpt>
      <trkpt lat="44.42276" lon="6.19567">
        <ele>823.5065918</ele>
        <time>2013-08-26T11:44:45Z</time>
      </trkpt>
      <trkpt lat="44.42306" lon="6.19637">
        <ele>823.9870605</ele>
        <time>2013-08-26T11:45:14Z</time>
      </trkpt>
      <trkpt lat="44.42317" lon="6.19661">
        <ele>825.4289551</ele>
        <time>2013-08-26T11:45:25Z</time>
      </trkpt>
      <trkpt lat="44.42327" lon="6.19692">
        <ele>828.3132324</ele>
        <time>2013-08-26T11:45:37Z</time>
      </trkpt>
      <trkpt lat="44.42356" lon="6.19746">
        <ele>829.2744141</ele>
        <time>2013-08-26T11:46:00Z</time>
      </trkpt>
      <trkpt lat="44.42391" lon="6.19793">
        <ele>829.755127</ele>
        <time>2013-08-26T11:46:19Z</time>
      </trkpt>
      <trkpt lat="44.42435" lon="6.19824">
        <ele>829.755127</ele>
        <time>2013-08-26T11:46:39Z</time>
      </trkpt>
      <trkpt lat="44.42443" lon="6.19821">
        <ele>831.6777344</ele>
        <time>2013-08-26T11:46:42Z</time>
      </trkpt>
      <trkpt lat="44.42474" lon="6.19785">
        <ele>832.6391602</ele>
        <time>2013-08-26T11:47:00Z</time>
      </trkpt>
      <trkpt lat="44.42492" lon="6.19761">
        <ele>832.6391602</ele>
        <time>2013-08-26T11:47:12Z</time>
      </trkpt>
      <trkpt lat="44.42521" lon="6.19728">
        <ele>834.0810547</ele>
        <time>2013-08-26T11:47:30Z</time>
      </trkpt>
      <trkpt lat="44.42554" lon="6.19702">
        <ele>837.4455566</ele>
        <time>2013-08-26T11:47:48Z</time>
      </trkpt>
      <trkpt lat="44.42556" lon="6.19701">
        <ele>837.4455566</ele>
        <time>2013-08-26T11:47:49Z</time>
      </trkpt>
      <trkpt lat="44.42598" lon="6.19683">
        <ele>838.8876953</ele>
        <time>2013-08-26T11:48:10Z</time>
      </trkpt>
      <trkpt lat="44.42652" lon="6.19666">
        <ele>839.848877</ele>
        <time>2013-08-26T11:48:35Z</time>
      </trkpt>
      <trkpt lat="44.42688" lon="6.19677">
        <ele>841.7714844</ele>
        <time>2013-08-26T11:48:54Z</time>
      </trkpt>
      <trkpt lat="44.42722" lon="6.19701">
        <ele>844.6555176</ele>
        <time>2013-08-26T11:49:16Z</time>
      </trkpt>
      <trkpt lat="44.42754" lon="6.19728">
        <ele>847.5395508</ele>
        <time>2013-08-26T11:49:37Z</time>
      </trkpt>
      <trkpt lat="44.42782" lon="6.19754">
        <ele>850.423584</ele>
        <time>2013-08-26T11:49:55Z</time>
      </trkpt>
      <trkpt lat="44.42805" lon="6.19775">
        <ele>850.423584</ele>
        <time>2013-08-26T11:50:12Z</time>
      </trkpt>
      <trkpt lat="44.42826" lon="6.19795">
        <ele>848.9814453</ele>
        <time>2013-08-26T11:50:27Z</time>
      </trkpt>
      <trkpt lat="44.42827" lon="6.19797">
        <ele>848.9814453</ele>
        <time>2013-08-26T11:50:37Z</time>
      </trkpt>
      <trkpt lat="44.42827" lon="6.19797">
        <ele>849.4621582</ele>
        <time>2013-08-26T11:51:02Z</time>
      </trkpt>
      <trkpt lat="44.42827" lon="6.19797">
        <ele>850.423584</ele>
        <time>2013-08-26T11:51:17Z</time>
      </trkpt>
    </trkseg>
  </trk>
</gpx>